<?xml version='1.0' encoding='UTF-8'?>
<gpx version="1.1" creator="https://www.komoot.de" xmlns="http://www.topografix.com/GPX/1/1" xmlns:xsi="http://www.w3.org/2001/XMLSchema-instance" xsi:schemaLocation="http://www.topografix.com/GPX/1/1 http://www.topografix.com/GPX/1/1/gpx.xsd">
  <metadata>
    <name>Tour</name>
    <author>
      <link href="https://www.komoot.de">
        <text>komoot</text>
        <type>text/html</type>
      </link>
    </author>
  </metadata>
  <trk>
    <name>Tour</name>
    <trkseg>
      <trkpt lat="52.754210" lon="8.180040">
        <ele>35.582321</ele>
        <time>2022-04-14T16:21:51.001Z</time>
      </trkpt>
      <trkpt lat="52.754319" lon="8.180226">
        <ele>35.582321</ele>
        <time>2022-04-14T16:24:37.995Z</time>
      </trkpt>
      <trkpt lat="52.754203" lon="8.180104">
        <ele>35.582321</ele>
        <time>2022-04-14T16:25:20.994Z</time>
      </trkpt>
      <trkpt lat="52.754104" lon="8.180078">
        <ele>35.582321</ele>
        <time>2022-04-14T16:25:23.994Z</time>
      </trkpt>
      <trkpt lat="52.754039" lon="8.179972">
        <ele>35.582321</ele>
        <time>2022-04-14T16:25:27.994Z</time>
      </trkpt>
      <trkpt lat="52.754135" lon="8.179932">
        <ele>35.582321</ele>
        <time>2022-04-14T16:25:31.994Z</time>
      </trkpt>
      <trkpt lat="52.754243" lon="8.179972">
        <ele>35.582321</ele>
        <time>2022-04-14T16:25:35.993Z</time>
      </trkpt>
      <trkpt lat="52.754354" lon="8.180018">
        <ele>35.582321</ele>
        <time>2022-04-14T16:25:39.993Z</time>
      </trkpt>
      <trkpt lat="52.754468" lon="8.180056">
        <ele>35.595474</ele>
        <time>2022-04-14T16:25:44.993Z</time>
      </trkpt>
      <trkpt lat="52.754559" lon="8.180080">
        <ele>35.640575</ele>
        <time>2022-04-14T16:25:47.993Z</time>
      </trkpt>
      <trkpt lat="52.754663" lon="8.180138">
        <ele>35.694297</ele>
        <time>2022-04-14T16:25:51.993Z</time>
      </trkpt>
      <trkpt lat="52.754745" lon="8.180213">
        <ele>35.740168</ele>
        <time>2022-04-14T16:25:55.993Z</time>
      </trkpt>
      <trkpt lat="52.754824" lon="8.180287">
        <ele>35.784614</ele>
        <time>2022-04-14T16:25:59.993Z</time>
      </trkpt>
      <trkpt lat="52.754922" lon="8.180318">
        <ele>35.833448</ele>
        <time>2022-04-14T16:26:02.993Z</time>
      </trkpt>
      <trkpt lat="52.755032" lon="8.180344">
        <ele>35.887833</ele>
        <time>2022-04-14T16:26:06.993Z</time>
      </trkpt>
      <trkpt lat="52.755130" lon="8.180374">
        <ele>35.936613</ele>
        <time>2022-04-14T16:26:10.993Z</time>
      </trkpt>
      <trkpt lat="52.755231" lon="8.180415">
        <ele>35.987515</ele>
        <time>2022-04-14T16:26:13.993Z</time>
      </trkpt>
      <trkpt lat="52.755349" lon="8.180459">
        <ele>36.046719</ele>
        <time>2022-04-14T16:26:16.993Z</time>
      </trkpt>
      <trkpt lat="52.755474" lon="8.180494">
        <ele>36.108769</ele>
        <time>2022-04-14T16:26:19.993Z</time>
      </trkpt>
      <trkpt lat="52.755573" lon="8.180496">
        <ele>36.157226</ele>
        <time>2022-04-14T16:26:21.993Z</time>
      </trkpt>
      <trkpt lat="52.755684" lon="8.180463">
        <ele>36.212424</ele>
        <time>2022-04-14T16:26:24.992Z</time>
      </trkpt>
      <trkpt lat="52.755797" lon="8.180422">
        <ele>36.269047</ele>
        <time>2022-04-14T16:26:27.992Z</time>
      </trkpt>
      <trkpt lat="52.755895" lon="8.180387">
        <ele>36.318118</ele>
        <time>2022-04-14T16:26:30.992Z</time>
      </trkpt>
      <trkpt lat="52.755993" lon="8.180351">
        <ele>36.367253</ele>
        <time>2022-04-14T16:26:33.992Z</time>
      </trkpt>
      <trkpt lat="52.756087" lon="8.180303">
        <ele>36.415405</ele>
        <time>2022-04-14T16:26:36.992Z</time>
      </trkpt>
      <trkpt lat="52.756180" lon="8.180263">
        <ele>36.462439</ele>
        <time>2022-04-14T16:26:39.992Z</time>
      </trkpt>
      <trkpt lat="52.756267" lon="8.180222">
        <ele>36.457757</ele>
        <time>2022-04-14T16:26:42.992Z</time>
      </trkpt>
      <trkpt lat="52.756363" lon="8.180186">
        <ele>36.452443</ele>
        <time>2022-04-14T16:26:45.992Z</time>
      </trkpt>
      <trkpt lat="52.756478" lon="8.180143">
        <ele>36.446078</ele>
        <time>2022-04-14T16:26:48.992Z</time>
      </trkpt>
      <trkpt lat="52.756565" lon="8.180090">
        <ele>36.441073</ele>
        <time>2022-04-14T16:26:51.992Z</time>
      </trkpt>
      <trkpt lat="52.756666" lon="8.180045">
        <ele>36.435427</ele>
        <time>2022-04-14T16:26:54.992Z</time>
      </trkpt>
      <trkpt lat="52.756765" lon="8.180000">
        <ele>36.429884</ele>
        <time>2022-04-14T16:26:57.992Z</time>
      </trkpt>
      <trkpt lat="52.756876" lon="8.179970">
        <ele>36.423813</ele>
        <time>2022-04-14T16:27:00.992Z</time>
      </trkpt>
      <trkpt lat="52.756981" lon="8.179923">
        <ele>36.417941</ele>
        <time>2022-04-14T16:27:03.992Z</time>
      </trkpt>
      <trkpt lat="52.757082" lon="8.179853">
        <ele>36.412029</ele>
        <time>2022-04-14T16:27:06.992Z</time>
      </trkpt>
      <trkpt lat="52.757188" lon="8.179790">
        <ele>36.405948</ele>
        <time>2022-04-14T16:27:09.992Z</time>
      </trkpt>
      <trkpt lat="52.757304" lon="8.179725">
        <ele>36.399336</ele>
        <time>2022-04-14T16:27:12.992Z</time>
      </trkpt>
      <trkpt lat="52.757425" lon="8.179670">
        <ele>36.392562</ele>
        <time>2022-04-14T16:27:15.991Z</time>
      </trkpt>
      <trkpt lat="52.757543" lon="8.179626">
        <ele>36.386032</ele>
        <time>2022-04-14T16:27:18.991Z</time>
      </trkpt>
      <trkpt lat="52.757656" lon="8.179576">
        <ele>36.379718</ele>
        <time>2022-04-14T16:27:21.991Z</time>
      </trkpt>
      <trkpt lat="52.757755" lon="8.179521">
        <ele>36.374080</ele>
        <time>2022-04-14T16:27:24.991Z</time>
      </trkpt>
      <trkpt lat="52.757867" lon="8.179465">
        <ele>36.367764</ele>
        <time>2022-04-14T16:27:27.991Z</time>
      </trkpt>
      <trkpt lat="52.757981" lon="8.179414">
        <ele>36.347107</ele>
        <time>2022-04-14T16:27:30.991Z</time>
      </trkpt>
      <trkpt lat="52.758096" lon="8.179363">
        <ele>36.318523</ele>
        <time>2022-04-14T16:27:33.991Z</time>
      </trkpt>
      <trkpt lat="52.758206" lon="8.179314">
        <ele>36.291173</ele>
        <time>2022-04-14T16:27:36.991Z</time>
      </trkpt>
      <trkpt lat="52.758322" lon="8.179257">
        <ele>36.262120</ele>
        <time>2022-04-14T16:27:39.991Z</time>
      </trkpt>
      <trkpt lat="52.758428" lon="8.179212">
        <ele>36.235847</ele>
        <time>2022-04-14T16:27:42.991Z</time>
      </trkpt>
      <trkpt lat="52.758542" lon="8.179160">
        <ele>36.207456</ele>
        <time>2022-04-14T16:27:45.991Z</time>
      </trkpt>
      <trkpt lat="52.758664" lon="8.179111">
        <ele>36.177316</ele>
        <time>2022-04-14T16:27:48.991Z</time>
      </trkpt>
      <trkpt lat="52.758780" lon="8.179070">
        <ele>36.148838</ele>
        <time>2022-04-14T16:27:51.991Z</time>
      </trkpt>
      <trkpt lat="52.758890" lon="8.179085">
        <ele>36.122341</ele>
        <time>2022-04-14T16:27:54.991Z</time>
      </trkpt>
      <trkpt lat="52.759011" lon="8.179129">
        <ele>36.092598</ele>
        <time>2022-04-14T16:27:57.991Z</time>
      </trkpt>
      <trkpt lat="52.759129" lon="8.179173">
        <ele>36.063558</ele>
        <time>2022-04-14T16:28:00.991Z</time>
      </trkpt>
      <trkpt lat="52.759231" lon="8.179212">
        <ele>36.038425</ele>
        <time>2022-04-14T16:28:03.991Z</time>
      </trkpt>
      <trkpt lat="52.759349" lon="8.179251">
        <ele>36.009536</ele>
        <time>2022-04-14T16:28:06.990Z</time>
      </trkpt>
      <trkpt lat="52.759472" lon="8.179296">
        <ele>35.979293</ele>
        <time>2022-04-14T16:28:09.990Z</time>
      </trkpt>
      <trkpt lat="52.759593" lon="8.179340">
        <ele>35.949550</ele>
        <time>2022-04-14T16:28:12.990Z</time>
      </trkpt>
      <trkpt lat="52.759712" lon="8.179374">
        <ele>35.934528</ele>
        <time>2022-04-14T16:28:15.990Z</time>
      </trkpt>
      <trkpt lat="52.759827" lon="8.179405">
        <ele>35.936200</ele>
        <time>2022-04-14T16:28:18.990Z</time>
      </trkpt>
      <trkpt lat="52.759935" lon="8.179453">
        <ele>35.937805</ele>
        <time>2022-04-14T16:28:21.990Z</time>
      </trkpt>
      <trkpt lat="52.760046" lon="8.179497">
        <ele>35.939443</ele>
        <time>2022-04-14T16:28:24.990Z</time>
      </trkpt>
      <trkpt lat="52.760134" lon="8.179530">
        <ele>35.940738</ele>
        <time>2022-04-14T16:28:26.990Z</time>
      </trkpt>
      <trkpt lat="52.760258" lon="8.179564">
        <ele>35.942542</ele>
        <time>2022-04-14T16:28:29.990Z</time>
      </trkpt>
      <trkpt lat="52.760373" lon="8.179590">
        <ele>35.944208</ele>
        <time>2022-04-14T16:28:32.990Z</time>
      </trkpt>
      <trkpt lat="52.760481" lon="8.179613">
        <ele>35.945771</ele>
        <time>2022-04-14T16:28:35.990Z</time>
      </trkpt>
      <trkpt lat="52.760593" lon="8.179650">
        <ele>35.947410</ele>
        <time>2022-04-14T16:28:38.990Z</time>
      </trkpt>
      <trkpt lat="52.760711" lon="8.179688">
        <ele>35.949135</ele>
        <time>2022-04-14T16:28:41.990Z</time>
      </trkpt>
      <trkpt lat="52.760836" lon="8.179723">
        <ele>35.950955</ele>
        <time>2022-04-14T16:28:44.990Z</time>
      </trkpt>
      <trkpt lat="52.760958" lon="8.179760">
        <ele>35.952735</ele>
        <time>2022-04-14T16:28:47.990Z</time>
      </trkpt>
      <trkpt lat="52.761035" lon="8.179871">
        <ele>35.954201</ele>
        <time>2022-04-14T16:28:50.990Z</time>
      </trkpt>
      <trkpt lat="52.760986" lon="8.180032">
        <ele>35.955766</ele>
        <time>2022-04-14T16:28:53.990Z</time>
      </trkpt>
      <trkpt lat="52.760923" lon="8.180172">
        <ele>35.957282</ele>
        <time>2022-04-14T16:28:56.989Z</time>
      </trkpt>
      <trkpt lat="52.760871" lon="8.180320">
        <ele>35.958768</ele>
        <time>2022-04-14T16:28:59.989Z</time>
      </trkpt>
      <trkpt lat="52.760819" lon="8.180483">
        <ele>35.960054</ele>
        <time>2022-04-14T16:29:02.989Z</time>
      </trkpt>
      <trkpt lat="52.760761" lon="8.180663">
        <ele>35.961144</ele>
        <time>2022-04-14T16:29:05.989Z</time>
      </trkpt>
      <trkpt lat="52.760706" lon="8.180837">
        <ele>35.962192</ele>
        <time>2022-04-14T16:29:08.989Z</time>
      </trkpt>
      <trkpt lat="52.760643" lon="8.181016">
        <ele>35.963298</ele>
        <time>2022-04-14T16:29:11.989Z</time>
      </trkpt>
      <trkpt lat="52.760576" lon="8.181202">
        <ele>35.964454</ele>
        <time>2022-04-14T16:29:14.989Z</time>
      </trkpt>
      <trkpt lat="52.760531" lon="8.181342">
        <ele>35.965301</ele>
        <time>2022-04-14T16:29:16.989Z</time>
      </trkpt>
      <trkpt lat="52.760479" lon="8.181538">
        <ele>35.966444</ele>
        <time>2022-04-14T16:29:19.989Z</time>
      </trkpt>
      <trkpt lat="52.760423" lon="8.181663">
        <ele>35.967275</ele>
        <time>2022-04-14T16:29:21.989Z</time>
      </trkpt>
      <trkpt lat="52.760380" lon="8.181796">
        <ele>35.968081</ele>
        <time>2022-04-14T16:29:23.989Z</time>
      </trkpt>
      <trkpt lat="52.760331" lon="8.181984">
        <ele>35.969174</ele>
        <time>2022-04-14T16:29:26.989Z</time>
      </trkpt>
      <trkpt lat="52.760274" lon="8.182164">
        <ele>35.970259</ele>
        <time>2022-04-14T16:29:29.989Z</time>
      </trkpt>
      <trkpt lat="52.760231" lon="8.182323">
        <ele>35.971189</ele>
        <time>2022-04-14T16:29:32.989Z</time>
      </trkpt>
      <trkpt lat="52.760182" lon="8.182496">
        <ele>35.972210</ele>
        <time>2022-04-14T16:29:35.989Z</time>
      </trkpt>
      <trkpt lat="52.760149" lon="8.182638">
        <ele>35.973022</ele>
        <time>2022-04-14T16:29:38.989Z</time>
      </trkpt>
      <trkpt lat="52.760131" lon="8.182796">
        <ele>35.973881</ele>
        <time>2022-04-14T16:29:42.989Z</time>
      </trkpt>
      <trkpt lat="52.760086" lon="8.182947">
        <ele>35.974780</ele>
        <time>2022-04-14T16:29:45.988Z</time>
      </trkpt>
      <trkpt lat="52.760029" lon="8.183110">
        <ele>36.006705</ele>
        <time>2022-04-14T16:29:48.988Z</time>
      </trkpt>
      <trkpt lat="52.759999" lon="8.183255">
        <ele>36.078521</ele>
        <time>2022-04-14T16:29:51.988Z</time>
      </trkpt>
      <trkpt lat="52.759966" lon="8.183429">
        <ele>36.163978</ele>
        <time>2022-04-14T16:29:54.988Z</time>
      </trkpt>
      <trkpt lat="52.759943" lon="8.183613">
        <ele>36.252030</ele>
        <time>2022-04-14T16:29:57.988Z</time>
      </trkpt>
      <trkpt lat="52.759911" lon="8.183802">
        <ele>36.344007</ele>
        <time>2022-04-14T16:30:01.988Z</time>
      </trkpt>
      <trkpt lat="52.759882" lon="8.183975">
        <ele>36.428137</ele>
        <time>2022-04-14T16:30:04.988Z</time>
      </trkpt>
      <trkpt lat="52.759851" lon="8.184152">
        <ele>36.514493</ele>
        <time>2022-04-14T16:30:07.988Z</time>
      </trkpt>
      <trkpt lat="52.759824" lon="8.184327">
        <ele>36.599131</ele>
        <time>2022-04-14T16:30:10.988Z</time>
      </trkpt>
      <trkpt lat="52.759801" lon="8.184509">
        <ele>36.686266</ele>
        <time>2022-04-14T16:30:13.988Z</time>
      </trkpt>
      <trkpt lat="52.759783" lon="8.184678">
        <ele>36.766687</ele>
        <time>2022-04-14T16:30:16.988Z</time>
      </trkpt>
      <trkpt lat="52.759763" lon="8.184860">
        <ele>36.853377</ele>
        <time>2022-04-14T16:30:19.988Z</time>
      </trkpt>
      <trkpt lat="52.759737" lon="8.185040">
        <ele>36.940104</ele>
        <time>2022-04-14T16:30:22.988Z</time>
      </trkpt>
      <trkpt lat="52.759706" lon="8.185222">
        <ele>37.028714</ele>
        <time>2022-04-14T16:30:25.987Z</time>
      </trkpt>
      <trkpt lat="52.759665" lon="8.185407">
        <ele>37.121047</ele>
        <time>2022-04-14T16:30:28.987Z</time>
      </trkpt>
      <trkpt lat="52.759629" lon="8.185604">
        <ele>37.217490</ele>
        <time>2022-04-14T16:30:31.987Z</time>
      </trkpt>
      <trkpt lat="52.759600" lon="8.185797">
        <ele>37.310687</ele>
        <time>2022-04-14T16:30:34.987Z</time>
      </trkpt>
      <trkpt lat="52.759569" lon="8.185986">
        <ele>37.297885</ele>
        <time>2022-04-14T16:30:37.987Z</time>
      </trkpt>
      <trkpt lat="52.759536" lon="8.186173">
        <ele>37.109209</ele>
        <time>2022-04-14T16:30:40.987Z</time>
      </trkpt>
      <trkpt lat="52.759511" lon="8.186362">
        <ele>36.921819</ele>
        <time>2022-04-14T16:30:43.987Z</time>
      </trkpt>
      <trkpt lat="52.759530" lon="8.186523">
        <ele>36.762934</ele>
        <time>2022-04-14T16:30:45.987Z</time>
      </trkpt>
      <trkpt lat="52.759510" lon="8.186744">
        <ele>36.546489</ele>
        <time>2022-04-14T16:30:48.987Z</time>
      </trkpt>
      <trkpt lat="52.759484" lon="8.186893">
        <ele>36.396285</ele>
        <time>2022-04-14T16:30:50.987Z</time>
      </trkpt>
      <trkpt lat="52.759470" lon="8.187043">
        <ele>36.249274</ele>
        <time>2022-04-14T16:30:52.987Z</time>
      </trkpt>
      <trkpt lat="52.759429" lon="8.187254">
        <ele>36.034618</ele>
        <time>2022-04-14T16:30:55.987Z</time>
      </trkpt>
      <trkpt lat="52.759366" lon="8.187381">
        <ele>35.875556</ele>
        <time>2022-04-14T16:30:57.987Z</time>
      </trkpt>
      <trkpt lat="52.759337" lon="8.187547">
        <ele>35.708199</ele>
        <time>2022-04-14T16:30:59.987Z</time>
      </trkpt>
      <trkpt lat="52.759323" lon="8.187701">
        <ele>35.557358</ele>
        <time>2022-04-14T16:31:01.987Z</time>
      </trkpt>
      <trkpt lat="52.759302" lon="8.187857">
        <ele>35.402559</ele>
        <time>2022-04-14T16:31:03.987Z</time>
      </trkpt>
      <trkpt lat="52.759256" lon="8.188071">
        <ele>35.182586</ele>
        <time>2022-04-14T16:31:06.987Z</time>
      </trkpt>
      <trkpt lat="52.759216" lon="8.188234">
        <ele>35.012213</ele>
        <time>2022-04-14T16:31:08.987Z</time>
      </trkpt>
      <trkpt lat="52.759194" lon="8.188380">
        <ele>34.866476</ele>
        <time>2022-04-14T16:31:10.987Z</time>
      </trkpt>
      <trkpt lat="52.759162" lon="8.188594">
        <ele>34.652956</ele>
        <time>2022-04-14T16:31:13.987Z</time>
      </trkpt>
      <trkpt lat="52.759144" lon="8.188791">
        <ele>34.489311</ele>
        <time>2022-04-14T16:31:16.987Z</time>
      </trkpt>
      <trkpt lat="52.759115" lon="8.188937">
        <ele>34.488532</ele>
        <time>2022-04-14T16:31:18.987Z</time>
      </trkpt>
      <trkpt lat="52.759087" lon="8.189100">
        <ele>34.487674</ele>
        <time>2022-04-14T16:31:21.987Z</time>
      </trkpt>
      <trkpt lat="52.759060" lon="8.189280">
        <ele>34.486734</ele>
        <time>2022-04-14T16:31:24.987Z</time>
      </trkpt>
      <trkpt lat="52.759035" lon="8.189435">
        <ele>34.485921</ele>
        <time>2022-04-14T16:31:27.986Z</time>
      </trkpt>
      <trkpt lat="52.758983" lon="8.189577">
        <ele>34.485080</ele>
        <time>2022-04-14T16:31:31.986Z</time>
      </trkpt>
      <trkpt lat="52.758985" lon="8.189755">
        <ele>34.484178</ele>
        <time>2022-04-14T16:31:36.986Z</time>
      </trkpt>
      <trkpt lat="52.759082" lon="8.189878">
        <ele>34.483154</ele>
        <time>2022-04-14T16:31:39.986Z</time>
      </trkpt>
      <trkpt lat="52.759167" lon="8.189943">
        <ele>34.482370</ele>
        <time>2022-04-14T16:31:41.986Z</time>
      </trkpt>
      <trkpt lat="52.759253" lon="8.190011">
        <ele>34.481572</ele>
        <time>2022-04-14T16:31:43.986Z</time>
      </trkpt>
      <trkpt lat="52.759364" lon="8.190070">
        <ele>34.480595</ele>
        <time>2022-04-14T16:31:45.986Z</time>
      </trkpt>
      <trkpt lat="52.759462" lon="8.190146">
        <ele>34.479689</ele>
        <time>2022-04-14T16:31:47.986Z</time>
      </trkpt>
      <trkpt lat="52.759545" lon="8.190240">
        <ele>34.478846</ele>
        <time>2022-04-14T16:31:49.986Z</time>
      </trkpt>
      <trkpt lat="52.759631" lon="8.190318">
        <ele>34.478025</ele>
        <time>2022-04-14T16:31:51.986Z</time>
      </trkpt>
      <trkpt lat="52.759710" lon="8.190399">
        <ele>34.477247</ele>
        <time>2022-04-14T16:31:53.986Z</time>
      </trkpt>
      <trkpt lat="52.759803" lon="8.190521">
        <ele>34.476252</ele>
        <time>2022-04-14T16:31:56.986Z</time>
      </trkpt>
      <trkpt lat="52.759897" lon="8.190645">
        <ele>34.475245</ele>
        <time>2022-04-14T16:31:59.986Z</time>
      </trkpt>
      <trkpt lat="52.760013" lon="8.190749">
        <ele>34.460731</ele>
        <time>2022-04-14T16:32:02.986Z</time>
      </trkpt>
      <trkpt lat="52.760125" lon="8.190852">
        <ele>34.405290</ele>
        <time>2022-04-14T16:32:05.986Z</time>
      </trkpt>
      <trkpt lat="52.760244" lon="8.190945">
        <ele>34.348351</ele>
        <time>2022-04-14T16:32:08.986Z</time>
      </trkpt>
      <trkpt lat="52.760327" lon="8.191010">
        <ele>34.308622</ele>
        <time>2022-04-14T16:32:10.986Z</time>
      </trkpt>
      <trkpt lat="52.760415" lon="8.191072">
        <ele>34.267243</ele>
        <time>2022-04-14T16:32:12.986Z</time>
      </trkpt>
      <trkpt lat="52.760495" lon="8.191155">
        <ele>34.226385</ele>
        <time>2022-04-14T16:32:14.986Z</time>
      </trkpt>
      <trkpt lat="52.760596" lon="8.191278">
        <ele>34.172116</ele>
        <time>2022-04-14T16:32:17.985Z</time>
      </trkpt>
      <trkpt lat="52.760698" lon="8.191357">
        <ele>34.123391</ele>
        <time>2022-04-14T16:32:19.985Z</time>
      </trkpt>
      <trkpt lat="52.760823" lon="8.191455">
        <ele>34.063547</ele>
        <time>2022-04-14T16:32:22.985Z</time>
      </trkpt>
      <trkpt lat="52.760916" lon="8.191572">
        <ele>34.012989</ele>
        <time>2022-04-14T16:32:25.985Z</time>
      </trkpt>
      <trkpt lat="52.761037" lon="8.191671">
        <ele>33.954588</ele>
        <time>2022-04-14T16:32:28.985Z</time>
      </trkpt>
      <trkpt lat="52.761150" lon="8.191804">
        <ele>33.894580</ele>
        <time>2022-04-14T16:32:31.985Z</time>
      </trkpt>
      <trkpt lat="52.761243" lon="8.191867">
        <ele>33.851105</ele>
        <time>2022-04-14T16:32:33.985Z</time>
      </trkpt>
      <trkpt lat="52.761324" lon="8.191969">
        <ele>33.807056</ele>
        <time>2022-04-14T16:32:35.985Z</time>
      </trkpt>
      <trkpt lat="52.761407" lon="8.192046">
        <ele>33.765884</ele>
        <time>2022-04-14T16:32:37.985Z</time>
      </trkpt>
      <trkpt lat="52.761522" lon="8.192136">
        <ele>33.710846</ele>
        <time>2022-04-14T16:32:40.985Z</time>
      </trkpt>
      <trkpt lat="52.761638" lon="8.192245">
        <ele>33.703171</ele>
        <time>2022-04-14T16:32:43.985Z</time>
      </trkpt>
      <trkpt lat="52.761756" lon="8.192350">
        <ele>33.712221</ele>
        <time>2022-04-14T16:32:46.985Z</time>
      </trkpt>
      <trkpt lat="52.761845" lon="8.192437">
        <ele>33.719203</ele>
        <time>2022-04-14T16:32:48.985Z</time>
      </trkpt>
      <trkpt lat="52.761944" lon="8.192529">
        <ele>33.726872</ele>
        <time>2022-04-14T16:32:51.985Z</time>
      </trkpt>
      <trkpt lat="52.762075" lon="8.192611">
        <ele>33.736331</ele>
        <time>2022-04-14T16:32:54.985Z</time>
      </trkpt>
      <trkpt lat="52.762153" lon="8.192688">
        <ele>33.742466</ele>
        <time>2022-04-14T16:32:56.985Z</time>
      </trkpt>
      <trkpt lat="52.762262" lon="8.192768">
        <ele>33.750519</ele>
        <time>2022-04-14T16:32:58.985Z</time>
      </trkpt>
      <trkpt lat="52.762349" lon="8.192849">
        <ele>33.757262</ele>
        <time>2022-04-14T16:33:01.985Z</time>
      </trkpt>
      <trkpt lat="52.762458" lon="8.192951">
        <ele>33.765720</ele>
        <time>2022-04-14T16:33:04.985Z</time>
      </trkpt>
      <trkpt lat="52.762576" lon="8.193062">
        <ele>33.774889</ele>
        <time>2022-04-14T16:33:07.984Z</time>
      </trkpt>
      <trkpt lat="52.762705" lon="8.193162">
        <ele>33.784510</ele>
        <time>2022-04-14T16:33:10.984Z</time>
      </trkpt>
      <trkpt lat="52.762796" lon="8.193221">
        <ele>33.791110</ele>
        <time>2022-04-14T16:33:12.984Z</time>
      </trkpt>
      <trkpt lat="52.762875" lon="8.193297">
        <ele>33.797283</ele>
        <time>2022-04-14T16:33:14.984Z</time>
      </trkpt>
      <trkpt lat="52.762991" lon="8.193391">
        <ele>33.806006</ele>
        <time>2022-04-14T16:33:17.984Z</time>
      </trkpt>
      <trkpt lat="52.763082" lon="8.193454">
        <ele>33.812668</ele>
        <time>2022-04-14T16:33:19.984Z</time>
      </trkpt>
      <trkpt lat="52.763159" lon="8.193546">
        <ele>33.855100</ele>
        <time>2022-04-14T16:33:21.984Z</time>
      </trkpt>
      <trkpt lat="52.763237" lon="8.193633">
        <ele>34.049040</ele>
        <time>2022-04-14T16:33:23.984Z</time>
      </trkpt>
      <trkpt lat="52.763321" lon="8.193693">
        <ele>34.237636</ele>
        <time>2022-04-14T16:33:25.984Z</time>
      </trkpt>
      <trkpt lat="52.763403" lon="8.193764">
        <ele>34.428422</ele>
        <time>2022-04-14T16:33:27.984Z</time>
      </trkpt>
      <trkpt lat="52.763518" lon="8.193871">
        <ele>34.700410</ele>
        <time>2022-04-14T16:33:30.984Z</time>
      </trkpt>
      <trkpt lat="52.763629" lon="8.193974">
        <ele>34.962767</ele>
        <time>2022-04-14T16:33:33.984Z</time>
      </trkpt>
      <trkpt lat="52.763728" lon="8.194065">
        <ele>35.196235</ele>
        <time>2022-04-14T16:33:36.984Z</time>
      </trkpt>
      <trkpt lat="52.763826" lon="8.194157">
        <ele>35.428518</ele>
        <time>2022-04-14T16:33:39.984Z</time>
      </trkpt>
      <trkpt lat="52.763926" lon="8.194251">
        <ele>35.665616</ele>
        <time>2022-04-14T16:33:42.984Z</time>
      </trkpt>
      <trkpt lat="52.764030" lon="8.194352">
        <ele>35.914221</ele>
        <time>2022-04-14T16:33:45.984Z</time>
      </trkpt>
      <trkpt lat="52.764133" lon="8.194442">
        <ele>36.154341</ele>
        <time>2022-04-14T16:33:48.984Z</time>
      </trkpt>
      <trkpt lat="52.764243" lon="8.194547">
        <ele>36.416141</ele>
        <time>2022-04-14T16:33:51.984Z</time>
      </trkpt>
      <trkpt lat="52.764355" lon="8.194644">
        <ele>36.676740</ele>
        <time>2022-04-14T16:33:54.984Z</time>
      </trkpt>
      <trkpt lat="52.764460" lon="8.194738">
        <ele>36.922847</ele>
        <time>2022-04-14T16:33:57.983Z</time>
      </trkpt>
      <trkpt lat="52.764568" lon="8.194832">
        <ele>37.174408</ele>
        <time>2022-04-14T16:34:00.983Z</time>
      </trkpt>
      <trkpt lat="52.764680" lon="8.194927">
        <ele>37.433858</ele>
        <time>2022-04-14T16:34:03.983Z</time>
      </trkpt>
      <trkpt lat="52.764796" lon="8.195019">
        <ele>37.571701</ele>
        <time>2022-04-14T16:34:06.983Z</time>
      </trkpt>
      <trkpt lat="52.764909" lon="8.195113">
        <ele>37.641961</ele>
        <time>2022-04-14T16:34:09.983Z</time>
      </trkpt>
      <trkpt lat="52.765019" lon="8.195210">
        <ele>37.711206</ele>
        <time>2022-04-14T16:34:12.983Z</time>
      </trkpt>
      <trkpt lat="52.765127" lon="8.195315">
        <ele>37.780797</ele>
        <time>2022-04-14T16:34:15.983Z</time>
      </trkpt>
      <trkpt lat="52.765239" lon="8.195419">
        <ele>37.852146</ele>
        <time>2022-04-14T16:34:18.983Z</time>
      </trkpt>
      <trkpt lat="52.765343" lon="8.195517">
        <ele>37.918636</ele>
        <time>2022-04-14T16:34:21.983Z</time>
      </trkpt>
      <trkpt lat="52.765449" lon="8.195611">
        <ele>37.985446</ele>
        <time>2022-04-14T16:34:24.983Z</time>
      </trkpt>
      <trkpt lat="52.765555" lon="8.195699">
        <ele>38.051327</ele>
        <time>2022-04-14T16:34:27.983Z</time>
      </trkpt>
      <trkpt lat="52.765671" lon="8.195795">
        <ele>38.123378</ele>
        <time>2022-04-14T16:34:30.983Z</time>
      </trkpt>
      <trkpt lat="52.765786" lon="8.195885">
        <ele>38.194046</ele>
        <time>2022-04-14T16:34:33.983Z</time>
      </trkpt>
      <trkpt lat="52.765881" lon="8.195993">
        <ele>38.258085</ele>
        <time>2022-04-14T16:34:36.983Z</time>
      </trkpt>
      <trkpt lat="52.765982" lon="8.196096">
        <ele>38.323998</ele>
        <time>2022-04-14T16:34:39.983Z</time>
      </trkpt>
      <trkpt lat="52.766096" lon="8.196181">
        <ele>38.393457</ele>
        <time>2022-04-14T16:34:42.983Z</time>
      </trkpt>
      <trkpt lat="52.766204" lon="8.196246">
        <ele>38.457293</ele>
        <time>2022-04-14T16:34:45.983Z</time>
      </trkpt>
      <trkpt lat="52.766296" lon="8.196260">
        <ele>38.508604</ele>
        <time>2022-04-14T16:34:47.982Z</time>
      </trkpt>
      <trkpt lat="52.766425" lon="8.196290">
        <ele>38.467062</ele>
        <time>2022-04-14T16:34:50.982Z</time>
      </trkpt>
      <trkpt lat="52.766519" lon="8.196308">
        <ele>38.415127</ele>
        <time>2022-04-14T16:34:52.982Z</time>
      </trkpt>
      <trkpt lat="52.766616" lon="8.196320">
        <ele>38.361742</ele>
        <time>2022-04-14T16:34:54.982Z</time>
      </trkpt>
      <trkpt lat="52.766708" lon="8.196331">
        <ele>38.311117</ele>
        <time>2022-04-14T16:34:56.982Z</time>
      </trkpt>
      <trkpt lat="52.766806" lon="8.196354">
        <ele>38.256793</ele>
        <time>2022-04-14T16:34:58.982Z</time>
      </trkpt>
      <trkpt lat="52.766938" lon="8.196383">
        <ele>38.183710</ele>
        <time>2022-04-14T16:35:01.982Z</time>
      </trkpt>
      <trkpt lat="52.767059" lon="8.196340">
        <ele>38.115784</ele>
        <time>2022-04-14T16:35:04.982Z</time>
      </trkpt>
      <trkpt lat="52.767182" lon="8.196278">
        <ele>38.045208</ele>
        <time>2022-04-14T16:35:07.982Z</time>
      </trkpt>
      <trkpt lat="52.767290" lon="8.196211">
        <ele>37.981897</ele>
        <time>2022-04-14T16:35:10.982Z</time>
      </trkpt>
      <trkpt lat="52.767410" lon="8.196125">
        <ele>37.910112</ele>
        <time>2022-04-14T16:35:13.982Z</time>
      </trkpt>
      <trkpt lat="52.767496" lon="8.196078">
        <ele>37.860400</ele>
        <time>2022-04-14T16:35:15.982Z</time>
      </trkpt>
      <trkpt lat="52.767580" lon="8.195997">
        <ele>37.807025</ele>
        <time>2022-04-14T16:35:18.982Z</time>
      </trkpt>
      <trkpt lat="52.767702" lon="8.195909">
        <ele>37.733969</ele>
        <time>2022-04-14T16:35:21.982Z</time>
      </trkpt>
      <trkpt lat="52.767822" lon="8.195833">
        <ele>37.663440</ele>
        <time>2022-04-14T16:35:24.982Z</time>
      </trkpt>
      <trkpt lat="52.767937" lon="8.195756">
        <ele>37.595342</ele>
        <time>2022-04-14T16:35:27.982Z</time>
      </trkpt>
      <trkpt lat="52.768023" lon="8.195706">
        <ele>37.545308</ele>
        <time>2022-04-14T16:35:29.982Z</time>
      </trkpt>
      <trkpt lat="52.768128" lon="8.195639">
        <ele>37.603283</ele>
        <time>2022-04-14T16:35:32.982Z</time>
      </trkpt>
      <trkpt lat="52.768213" lon="8.195573">
        <ele>37.668219</ele>
        <time>2022-04-14T16:35:34.982Z</time>
      </trkpt>
      <trkpt lat="52.768336" lon="8.195496">
        <ele>37.759165</ele>
        <time>2022-04-14T16:35:37.981Z</time>
      </trkpt>
      <trkpt lat="52.768461" lon="8.195420">
        <ele>37.851259</ele>
        <time>2022-04-14T16:35:40.981Z</time>
      </trkpt>
      <trkpt lat="52.768574" lon="8.195313">
        <ele>37.941308</ele>
        <time>2022-04-14T16:35:43.981Z</time>
      </trkpt>
      <trkpt lat="52.768691" lon="8.195217">
        <ele>38.031629</ele>
        <time>2022-04-14T16:35:46.981Z</time>
      </trkpt>
      <trkpt lat="52.768773" lon="8.195149">
        <ele>38.095065</ele>
        <time>2022-04-14T16:35:48.981Z</time>
      </trkpt>
      <trkpt lat="52.768861" lon="8.195075">
        <ele>38.163336</ele>
        <time>2022-04-14T16:35:50.981Z</time>
      </trkpt>
      <trkpt lat="52.768980" lon="8.194981">
        <ele>38.254534</ele>
        <time>2022-04-14T16:35:53.981Z</time>
      </trkpt>
      <trkpt lat="52.769070" lon="8.194888">
        <ele>38.327926</ele>
        <time>2022-04-14T16:35:55.981Z</time>
      </trkpt>
      <trkpt lat="52.769177" lon="8.194767">
        <ele>38.417571</ele>
        <time>2022-04-14T16:35:58.981Z</time>
      </trkpt>
      <trkpt lat="52.769254" lon="8.194680">
        <ele>38.482065</ele>
        <time>2022-04-14T16:36:00.981Z</time>
      </trkpt>
      <trkpt lat="52.769327" lon="8.194590">
        <ele>38.545037</ele>
        <time>2022-04-14T16:36:02.981Z</time>
      </trkpt>
      <trkpt lat="52.769441" lon="8.194489">
        <ele>38.634474</ele>
        <time>2022-04-14T16:36:05.981Z</time>
      </trkpt>
      <trkpt lat="52.769528" lon="8.194358">
        <ele>38.715851</ele>
        <time>2022-04-14T16:36:08.981Z</time>
      </trkpt>
      <trkpt lat="52.769616" lon="8.194242">
        <ele>38.813638</ele>
        <time>2022-04-14T16:36:11.981Z</time>
      </trkpt>
      <trkpt lat="52.769702" lon="8.194120">
        <ele>39.008073</ele>
        <time>2022-04-14T16:36:14.981Z</time>
      </trkpt>
      <trkpt lat="52.769799" lon="8.193989">
        <ele>39.222976</ele>
        <time>2022-04-14T16:36:17.981Z</time>
      </trkpt>
      <trkpt lat="52.769884" lon="8.193862">
        <ele>39.419555</ele>
        <time>2022-04-14T16:36:20.981Z</time>
      </trkpt>
      <trkpt lat="52.769978" lon="8.193736">
        <ele>39.627189</ele>
        <time>2022-04-14T16:36:23.981Z</time>
      </trkpt>
      <trkpt lat="52.770056" lon="8.193618">
        <ele>39.808597</ele>
        <time>2022-04-14T16:36:26.981Z</time>
      </trkpt>
      <trkpt lat="52.770128" lon="8.193490">
        <ele>39.990009</ele>
        <time>2022-04-14T16:36:29.980Z</time>
      </trkpt>
      <trkpt lat="52.770197" lon="8.193361">
        <ele>40.168733</ele>
        <time>2022-04-14T16:36:32.980Z</time>
      </trkpt>
      <trkpt lat="52.770266" lon="8.193228">
        <ele>40.350587</ele>
        <time>2022-04-14T16:36:35.980Z</time>
      </trkpt>
      <trkpt lat="52.770333" lon="8.193091">
        <ele>40.533437</ele>
        <time>2022-04-14T16:36:38.980Z</time>
      </trkpt>
      <trkpt lat="52.770401" lon="8.192975">
        <ele>40.701089</ele>
        <time>2022-04-14T16:36:41.980Z</time>
      </trkpt>
      <trkpt lat="52.770472" lon="8.192841">
        <ele>40.885974</ele>
        <time>2022-04-14T16:36:44.980Z</time>
      </trkpt>
      <trkpt lat="52.770539" lon="8.192697">
        <ele>41.074529</ele>
        <time>2022-04-14T16:36:47.980Z</time>
      </trkpt>
      <trkpt lat="52.770599" lon="8.192549">
        <ele>41.259447</ele>
        <time>2022-04-14T16:36:50.980Z</time>
      </trkpt>
      <trkpt lat="52.770656" lon="8.192402">
        <ele>41.440675</ele>
        <time>2022-04-14T16:36:53.980Z</time>
      </trkpt>
      <trkpt lat="52.770708" lon="8.192239">
        <ele>41.631943</ele>
        <time>2022-04-14T16:36:56.980Z</time>
      </trkpt>
      <trkpt lat="52.770764" lon="8.192086">
        <ele>41.817550</ele>
        <time>2022-04-14T16:36:59.980Z</time>
      </trkpt>
      <trkpt lat="52.770826" lon="8.191932">
        <ele>41.657737</ele>
        <time>2022-04-14T16:37:02.980Z</time>
      </trkpt>
      <trkpt lat="52.770894" lon="8.191757">
        <ele>41.344582</ele>
        <time>2022-04-14T16:37:05.980Z</time>
      </trkpt>
      <trkpt lat="52.770955" lon="8.191574">
        <ele>41.029994</ele>
        <time>2022-04-14T16:37:08.980Z</time>
      </trkpt>
      <trkpt lat="52.771001" lon="8.191382">
        <ele>40.719066</ele>
        <time>2022-04-14T16:37:11.980Z</time>
      </trkpt>
      <trkpt lat="52.771041" lon="8.191249">
        <ele>40.495436</ele>
        <time>2022-04-14T16:37:13.980Z</time>
      </trkpt>
      <trkpt lat="52.771090" lon="8.191025">
        <ele>40.136801</ele>
        <time>2022-04-14T16:37:16.980Z</time>
      </trkpt>
      <trkpt lat="52.771146" lon="8.190861">
        <ele>39.853260</ele>
        <time>2022-04-14T16:37:18.979Z</time>
      </trkpt>
      <trkpt lat="52.771188" lon="8.190691">
        <ele>39.576780</ele>
        <time>2022-04-14T16:37:20.979Z</time>
      </trkpt>
      <trkpt lat="52.771239" lon="8.190522">
        <ele>39.292428</ele>
        <time>2022-04-14T16:37:22.979Z</time>
      </trkpt>
      <trkpt lat="52.771275" lon="8.190344">
        <ele>39.009844</ele>
        <time>2022-04-14T16:37:24.979Z</time>
      </trkpt>
      <trkpt lat="52.771298" lon="8.190159">
        <ele>38.725480</ele>
        <time>2022-04-14T16:37:26.979Z</time>
      </trkpt>
      <trkpt lat="52.771327" lon="8.189975">
        <ele>38.439195</ele>
        <time>2022-04-14T16:37:28.979Z</time>
      </trkpt>
      <trkpt lat="52.771362" lon="8.189773">
        <ele>38.122828</ele>
        <time>2022-04-14T16:37:30.979Z</time>
      </trkpt>
      <trkpt lat="52.771384" lon="8.189578">
        <ele>37.824167</ele>
        <time>2022-04-14T16:37:32.979Z</time>
      </trkpt>
      <trkpt lat="52.771413" lon="8.189373">
        <ele>37.507185</ele>
        <time>2022-04-14T16:37:34.979Z</time>
      </trkpt>
      <trkpt lat="52.771439" lon="8.189190">
        <ele>37.351563</ele>
        <time>2022-04-14T16:37:36.979Z</time>
      </trkpt>
      <trkpt lat="52.771482" lon="8.189055">
        <ele>37.298591</ele>
        <time>2022-04-14T16:37:38.979Z</time>
      </trkpt>
      <trkpt lat="52.771497" lon="8.188840">
        <ele>37.223446</ele>
        <time>2022-04-14T16:37:41.979Z</time>
      </trkpt>
      <trkpt lat="52.771519" lon="8.188666">
        <ele>37.161726</ele>
        <time>2022-04-14T16:37:43.979Z</time>
      </trkpt>
      <trkpt lat="52.771546" lon="8.188468">
        <ele>37.091254</ele>
        <time>2022-04-14T16:37:46.979Z</time>
      </trkpt>
      <trkpt lat="52.771556" lon="8.188318">
        <ele>37.038858</ele>
        <time>2022-04-14T16:37:48.979Z</time>
      </trkpt>
      <trkpt lat="52.771573" lon="8.188119">
        <ele>36.969078</ele>
        <time>2022-04-14T16:37:51.979Z</time>
      </trkpt>
      <trkpt lat="52.771593" lon="8.187910">
        <ele>36.895609</ele>
        <time>2022-04-14T16:37:54.979Z</time>
      </trkpt>
      <trkpt lat="52.771623" lon="8.187702">
        <ele>36.821366</ele>
        <time>2022-04-14T16:37:57.979Z</time>
      </trkpt>
      <trkpt lat="52.771689" lon="8.187514">
        <ele>36.745897</ele>
        <time>2022-04-14T16:38:00.979Z</time>
      </trkpt>
      <trkpt lat="52.771783" lon="8.187373">
        <ele>36.673048</ele>
        <time>2022-04-14T16:38:03.979Z</time>
      </trkpt>
      <trkpt lat="52.771891" lon="8.187267">
        <ele>36.600963</ele>
        <time>2022-04-14T16:38:06.979Z</time>
      </trkpt>
      <trkpt lat="52.772001" lon="8.187163">
        <ele>36.528236</ele>
        <time>2022-04-14T16:38:09.978Z</time>
      </trkpt>
      <trkpt lat="52.772112" lon="8.187063">
        <ele>36.455685</ele>
        <time>2022-04-14T16:38:12.978Z</time>
      </trkpt>
      <trkpt lat="52.772214" lon="8.186956">
        <ele>36.386353</ele>
        <time>2022-04-14T16:38:15.978Z</time>
      </trkpt>
      <trkpt lat="52.772321" lon="8.186844">
        <ele>36.494899</ele>
        <time>2022-04-14T16:38:18.978Z</time>
      </trkpt>
      <trkpt lat="52.772425" lon="8.186733">
        <ele>36.717599</ele>
        <time>2022-04-14T16:38:21.978Z</time>
      </trkpt>
      <trkpt lat="52.772525" lon="8.186624">
        <ele>36.933083</ele>
        <time>2022-04-14T16:38:24.978Z</time>
      </trkpt>
      <trkpt lat="52.772630" lon="8.186518">
        <ele>37.154412</ele>
        <time>2022-04-14T16:38:27.978Z</time>
      </trkpt>
      <trkpt lat="52.772727" lon="8.186407">
        <ele>37.366643</ele>
        <time>2022-04-14T16:38:30.978Z</time>
      </trkpt>
      <trkpt lat="52.772824" lon="8.186295">
        <ele>37.579495</ele>
        <time>2022-04-14T16:38:33.978Z</time>
      </trkpt>
      <trkpt lat="52.772926" lon="8.186186">
        <ele>37.797992</ele>
        <time>2022-04-14T16:38:36.978Z</time>
      </trkpt>
      <trkpt lat="52.773024" lon="8.186072">
        <ele>38.013566</ele>
        <time>2022-04-14T16:38:39.978Z</time>
      </trkpt>
      <trkpt lat="52.773119" lon="8.185951">
        <ele>38.229313</ele>
        <time>2022-04-14T16:38:42.978Z</time>
      </trkpt>
      <trkpt lat="52.773221" lon="8.185841">
        <ele>38.448402</ele>
        <time>2022-04-14T16:38:45.978Z</time>
      </trkpt>
      <trkpt lat="52.773325" lon="8.185729">
        <ele>38.671693</ele>
        <time>2022-04-14T16:38:48.978Z</time>
      </trkpt>
      <trkpt lat="52.773431" lon="8.185608">
        <ele>38.903429</ele>
        <time>2022-04-14T16:38:51.978Z</time>
      </trkpt>
      <trkpt lat="52.773537" lon="8.185488">
        <ele>39.134549</ele>
        <time>2022-04-14T16:38:54.978Z</time>
      </trkpt>
      <trkpt lat="52.773648" lon="8.185370">
        <ele>39.371959</ele>
        <time>2022-04-14T16:38:57.978Z</time>
      </trkpt>
      <trkpt lat="52.773752" lon="8.185233">
        <ele>39.591838</ele>
        <time>2022-04-14T16:39:00.977Z</time>
      </trkpt>
      <trkpt lat="52.773858" lon="8.185098">
        <ele>39.574700</ele>
        <time>2022-04-14T16:39:03.977Z</time>
      </trkpt>
      <trkpt lat="52.773943" lon="8.185019">
        <ele>39.562211</ele>
        <time>2022-04-14T16:39:05.977Z</time>
      </trkpt>
      <trkpt lat="52.774059" lon="8.184913">
        <ele>39.545235</ele>
        <time>2022-04-14T16:39:08.977Z</time>
      </trkpt>
      <trkpt lat="52.774134" lon="8.184827">
        <ele>39.533545</ele>
        <time>2022-04-14T16:39:10.977Z</time>
      </trkpt>
      <trkpt lat="52.774230" lon="8.184695">
        <ele>39.517552</ele>
        <time>2022-04-14T16:39:13.977Z</time>
      </trkpt>
      <trkpt lat="52.774310" lon="8.184532">
        <ele>39.501289</ele>
        <time>2022-04-14T16:39:16.977Z</time>
      </trkpt>
      <trkpt lat="52.774353" lon="8.184393">
        <ele>39.489193</ele>
        <time>2022-04-14T16:39:18.977Z</time>
      </trkpt>
      <trkpt lat="52.774380" lon="8.184243">
        <ele>39.477068</ele>
        <time>2022-04-14T16:39:20.977Z</time>
      </trkpt>
      <trkpt lat="52.774435" lon="8.184038">
        <ele>39.459692</ele>
        <time>2022-04-14T16:39:23.977Z</time>
      </trkpt>
      <trkpt lat="52.774494" lon="8.183847">
        <ele>39.443076</ele>
        <time>2022-04-14T16:39:26.977Z</time>
      </trkpt>
      <trkpt lat="52.774514" lon="8.183686">
        <ele>39.430342</ele>
        <time>2022-04-14T16:39:28.977Z</time>
      </trkpt>
      <trkpt lat="52.774576" lon="8.183483">
        <ele>39.412723</ele>
        <time>2022-04-14T16:39:31.977Z</time>
      </trkpt>
      <trkpt lat="52.774632" lon="8.183283">
        <ele>39.395648</ele>
        <time>2022-04-14T16:39:34.977Z</time>
      </trkpt>
      <trkpt lat="52.774690" lon="8.183103">
        <ele>39.379846</ele>
        <time>2022-04-14T16:39:37.977Z</time>
      </trkpt>
      <trkpt lat="52.774752" lon="8.182978">
        <ele>39.367322</ele>
        <time>2022-04-14T16:39:39.977Z</time>
      </trkpt>
      <trkpt lat="52.774820" lon="8.182803">
        <ele>39.293275</ele>
        <time>2022-04-14T16:39:42.977Z</time>
      </trkpt>
      <trkpt lat="52.774862" lon="8.182604">
        <ele>39.195081</ele>
        <time>2022-04-14T16:39:45.977Z</time>
      </trkpt>
      <trkpt lat="52.774896" lon="8.182465">
        <ele>39.125228</ele>
        <time>2022-04-14T16:39:47.977Z</time>
      </trkpt>
      <trkpt lat="52.774935" lon="8.182281">
        <ele>39.034394</ele>
        <time>2022-04-14T16:39:50.976Z</time>
      </trkpt>
      <trkpt lat="52.774973" lon="8.182101">
        <ele>38.945573</ele>
        <time>2022-04-14T16:39:53.976Z</time>
      </trkpt>
      <trkpt lat="52.775008" lon="8.181914">
        <ele>38.854376</ele>
        <time>2022-04-14T16:39:56.976Z</time>
      </trkpt>
      <trkpt lat="52.775043" lon="8.181739">
        <ele>38.768504</ele>
        <time>2022-04-14T16:39:59.976Z</time>
      </trkpt>
      <trkpt lat="52.775077" lon="8.181574">
        <ele>38.687294</ele>
        <time>2022-04-14T16:40:02.976Z</time>
      </trkpt>
      <trkpt lat="52.775113" lon="8.181424">
        <ele>38.612112</ele>
        <time>2022-04-14T16:40:05.976Z</time>
      </trkpt>
      <trkpt lat="52.775175" lon="8.181286">
        <ele>38.532027</ele>
        <time>2022-04-14T16:40:09.976Z</time>
      </trkpt>
      <trkpt lat="52.775403" lon="8.181401">
        <ele>38.348442</ele>
        <time>2022-04-14T16:40:47.975Z</time>
      </trkpt>
      <trkpt lat="52.775495" lon="8.181547">
        <ele>38.250224</ele>
        <time>2022-04-14T16:40:50.975Z</time>
      </trkpt>
      <trkpt lat="52.775567" lon="8.181676">
        <ele>38.168451</ele>
        <time>2022-04-14T16:40:52.975Z</time>
      </trkpt>
      <trkpt lat="52.775647" lon="8.181771">
        <ele>38.092591</ele>
        <time>2022-04-14T16:40:54.975Z</time>
      </trkpt>
      <trkpt lat="52.775719" lon="8.181882">
        <ele>38.016768</ele>
        <time>2022-04-14T16:40:56.975Z</time>
      </trkpt>
      <trkpt lat="52.775791" lon="8.181986">
        <ele>37.967049</ele>
        <time>2022-04-14T16:40:58.975Z</time>
      </trkpt>
      <trkpt lat="52.775868" lon="8.182094">
        <ele>37.943317</ele>
        <time>2022-04-14T16:41:00.975Z</time>
      </trkpt>
      <trkpt lat="52.775940" lon="8.182217">
        <ele>37.918984</ele>
        <time>2022-04-14T16:41:02.975Z</time>
      </trkpt>
      <trkpt lat="52.776019" lon="8.182326">
        <ele>37.894800</ele>
        <time>2022-04-14T16:41:04.975Z</time>
      </trkpt>
      <trkpt lat="52.776107" lon="8.182442">
        <ele>37.868349</ele>
        <time>2022-04-14T16:41:06.975Z</time>
      </trkpt>
      <trkpt lat="52.776178" lon="8.182562">
        <ele>37.844486</ele>
        <time>2022-04-14T16:41:08.975Z</time>
      </trkpt>
      <trkpt lat="52.776249" lon="8.182662">
        <ele>37.822565</ele>
        <time>2022-04-14T16:41:10.975Z</time>
      </trkpt>
      <trkpt lat="52.776334" lon="8.182784">
        <ele>37.796110</ele>
        <time>2022-04-14T16:41:12.975Z</time>
      </trkpt>
      <trkpt lat="52.776423" lon="8.182908">
        <ele>37.768756</ele>
        <time>2022-04-14T16:41:14.975Z</time>
      </trkpt>
      <trkpt lat="52.776509" lon="8.183032">
        <ele>37.741937</ele>
        <time>2022-04-14T16:41:16.975Z</time>
      </trkpt>
      <trkpt lat="52.776596" lon="8.183151">
        <ele>37.715399</ele>
        <time>2022-04-14T16:41:19.059Z</time>
      </trkpt>
      <trkpt lat="52.776684" lon="8.183284">
        <ele>37.687377</ele>
        <time>2022-04-14T16:41:21.061Z</time>
      </trkpt>
      <trkpt lat="52.776779" lon="8.183415">
        <ele>37.658303</ele>
        <time>2022-04-14T16:41:23.056Z</time>
      </trkpt>
      <trkpt lat="52.776861" lon="8.183556">
        <ele>37.630497</ele>
        <time>2022-04-14T16:41:25.042Z</time>
      </trkpt>
      <trkpt lat="52.776907" lon="8.183706">
        <ele>37.606589</ele>
        <time>2022-04-14T16:41:27.039Z</time>
      </trkpt>
      <trkpt lat="52.776995" lon="8.183836">
        <ele>37.578853</ele>
        <time>2022-04-14T16:41:29.061Z</time>
      </trkpt>
      <trkpt lat="52.777066" lon="8.183981">
        <ele>37.568786</ele>
        <time>2022-04-14T16:41:31.053Z</time>
      </trkpt>
      <trkpt lat="52.777175" lon="8.184076">
        <ele>37.729207</ele>
        <time>2022-04-14T16:41:33.050Z</time>
      </trkpt>
      <trkpt lat="52.777258" lon="8.184186">
        <ele>37.867703</ele>
        <time>2022-04-14T16:41:35.054Z</time>
      </trkpt>
      <trkpt lat="52.777334" lon="8.184316">
        <ele>38.010081</ele>
        <time>2022-04-14T16:41:37.042Z</time>
      </trkpt>
      <trkpt lat="52.777418" lon="8.184448">
        <ele>38.160965</ele>
        <time>2022-04-14T16:41:39.038Z</time>
      </trkpt>
      <trkpt lat="52.777475" lon="8.184599">
        <ele>38.301137</ele>
        <time>2022-04-14T16:41:41.054Z</time>
      </trkpt>
      <trkpt lat="52.777550" lon="8.184732">
        <ele>38.444332</ele>
        <time>2022-04-14T16:41:43.048Z</time>
      </trkpt>
      <trkpt lat="52.777620" lon="8.184866">
        <ele>38.583766</ele>
        <time>2022-04-14T16:41:45.033Z</time>
      </trkpt>
      <trkpt lat="52.777681" lon="8.185015">
        <ele>38.725455</ele>
        <time>2022-04-14T16:41:47.048Z</time>
      </trkpt>
      <trkpt lat="52.777736" lon="8.185158">
        <ele>38.858908</ele>
        <time>2022-04-14T16:41:49.048Z</time>
      </trkpt>
      <trkpt lat="52.777786" lon="8.185319">
        <ele>39.001434</ele>
        <time>2022-04-14T16:41:51.052Z</time>
      </trkpt>
      <trkpt lat="52.777834" lon="8.185466">
        <ele>39.132990</ele>
        <time>2022-04-14T16:41:53.052Z</time>
      </trkpt>
      <trkpt lat="52.777878" lon="8.185616">
        <ele>39.264275</ele>
        <time>2022-04-14T16:41:55.038Z</time>
      </trkpt>
      <trkpt lat="52.777928" lon="8.185775">
        <ele>39.405401</ele>
        <time>2022-04-14T16:41:57.060Z</time>
      </trkpt>
      <trkpt lat="52.777963" lon="8.185944">
        <ele>39.546077</ele>
        <time>2022-04-14T16:41:59.057Z</time>
      </trkpt>
      <trkpt lat="52.777970" lon="8.186106">
        <ele>39.673981</ele>
        <time>2022-04-14T16:42:01.041Z</time>
      </trkpt>
      <trkpt lat="52.778015" lon="8.186278">
        <ele>39.821562</ele>
        <time>2022-04-14T16:42:03.039Z</time>
      </trkpt>
      <trkpt lat="52.778044" lon="8.186428">
        <ele>39.908739</ele>
        <time>2022-04-14T16:42:05.056Z</time>
      </trkpt>
      <trkpt lat="52.778023" lon="8.186584">
        <ele>39.940135</ele>
        <time>2022-04-14T16:42:07.057Z</time>
      </trkpt>
      <trkpt lat="52.778052" lon="8.186733">
        <ele>39.970883</ele>
        <time>2022-04-14T16:42:09.065Z</time>
      </trkpt>
      <trkpt lat="52.778075" lon="8.186900">
        <ele>40.004529</ele>
        <time>2022-04-14T16:42:11.049Z</time>
      </trkpt>
      <trkpt lat="52.778106" lon="8.187074">
        <ele>40.040162</ele>
        <time>2022-04-14T16:42:13.050Z</time>
      </trkpt>
      <trkpt lat="52.778111" lon="8.187234">
        <ele>40.071635</ele>
        <time>2022-04-14T16:42:15.052Z</time>
      </trkpt>
      <trkpt lat="52.778121" lon="8.187392">
        <ele>40.102843</ele>
        <time>2022-04-14T16:42:17.054Z</time>
      </trkpt>
      <trkpt lat="52.778126" lon="8.187553">
        <ele>40.134513</ele>
        <time>2022-04-14T16:42:19.041Z</time>
      </trkpt>
      <trkpt lat="52.778132" lon="8.187719">
        <ele>40.167181</ele>
        <time>2022-04-14T16:42:21.054Z</time>
      </trkpt>
      <trkpt lat="52.778139" lon="8.187877">
        <ele>40.198302</ele>
        <time>2022-04-14T16:42:23.047Z</time>
      </trkpt>
      <trkpt lat="52.778133" lon="8.188044">
        <ele>40.231166</ele>
        <time>2022-04-14T16:42:25.054Z</time>
      </trkpt>
      <trkpt lat="52.778132" lon="8.188219">
        <ele>40.265546</ele>
        <time>2022-04-14T16:42:27.053Z</time>
      </trkpt>
      <trkpt lat="52.778116" lon="8.188380">
        <ele>40.297598</ele>
        <time>2022-04-14T16:42:29.052Z</time>
      </trkpt>
      <trkpt lat="52.778095" lon="8.188546">
        <ele>40.330913</ele>
        <time>2022-04-14T16:42:31.051Z</time>
      </trkpt>
      <trkpt lat="52.778060" lon="8.188718">
        <ele>40.366562</ele>
        <time>2022-04-14T16:42:33.055Z</time>
      </trkpt>
      <trkpt lat="52.778040" lon="8.188891">
        <ele>40.401163</ele>
        <time>2022-04-14T16:42:35.058Z</time>
      </trkpt>
      <trkpt lat="52.778030" lon="8.189050">
        <ele>40.432566</ele>
        <time>2022-04-14T16:42:37.060Z</time>
      </trkpt>
      <trkpt lat="52.777994" lon="8.189226">
        <ele>40.469063</ele>
        <time>2022-04-14T16:42:39.062Z</time>
      </trkpt>
      <trkpt lat="52.777966" lon="8.189389">
        <ele>40.490024</ele>
        <time>2022-04-14T16:42:41.065Z</time>
      </trkpt>
      <trkpt lat="52.777939" lon="8.189553">
        <ele>40.504478</ele>
        <time>2022-04-14T16:42:43.045Z</time>
      </trkpt>
      <trkpt lat="52.777906" lon="8.189716">
        <ele>40.519096</ele>
        <time>2022-04-14T16:42:45.056Z</time>
      </trkpt>
      <trkpt lat="52.777880" lon="8.189897">
        <ele>40.534916</ele>
        <time>2022-04-14T16:42:47.056Z</time>
      </trkpt>
      <trkpt lat="52.777848" lon="8.190073">
        <ele>40.550545</ele>
        <time>2022-04-14T16:42:49.054Z</time>
      </trkpt>
      <trkpt lat="52.777804" lon="8.190226">
        <ele>40.564952</ele>
        <time>2022-04-14T16:42:51.049Z</time>
      </trkpt>
      <trkpt lat="52.777765" lon="8.190401">
        <ele>40.580812</ele>
        <time>2022-04-14T16:42:53.070Z</time>
      </trkpt>
      <trkpt lat="52.777720" lon="8.190588">
        <ele>40.597927</ele>
        <time>2022-04-14T16:42:55.046Z</time>
      </trkpt>
      <trkpt lat="52.777681" lon="8.190771">
        <ele>40.614427</ele>
        <time>2022-04-14T16:42:57.045Z</time>
      </trkpt>
      <trkpt lat="52.777626" lon="8.190932">
        <ele>40.630151</ele>
        <time>2022-04-14T16:42:59.053Z</time>
      </trkpt>
      <trkpt lat="52.777591" lon="8.191088">
        <ele>40.644300</ele>
        <time>2022-04-14T16:43:01.038Z</time>
      </trkpt>
      <trkpt lat="52.777538" lon="8.191230">
        <ele>40.658490</ele>
        <time>2022-04-14T16:43:03.044Z</time>
      </trkpt>
      <trkpt lat="52.777476" lon="8.191425">
        <ele>40.677224</ele>
        <time>2022-04-14T16:43:06.056Z</time>
      </trkpt>
      <trkpt lat="52.777423" lon="8.191569">
        <ele>40.691559</ele>
        <time>2022-04-14T16:43:08.047Z</time>
      </trkpt>
      <trkpt lat="52.777357" lon="8.191761">
        <ele>40.710339</ele>
        <time>2022-04-14T16:43:11.047Z</time>
      </trkpt>
      <trkpt lat="52.777282" lon="8.191950">
        <ele>40.729562</ele>
        <time>2022-04-14T16:43:14.069Z</time>
      </trkpt>
      <trkpt lat="52.777214" lon="8.192148">
        <ele>40.740761</ele>
        <time>2022-04-14T16:43:17.049Z</time>
      </trkpt>
      <trkpt lat="52.777152" lon="8.192357">
        <ele>40.750094</ele>
        <time>2022-04-14T16:43:20.033Z</time>
      </trkpt>
      <trkpt lat="52.777071" lon="8.192482">
        <ele>40.757438</ele>
        <time>2022-04-14T16:43:22.056Z</time>
      </trkpt>
      <trkpt lat="52.777002" lon="8.192657">
        <ele>40.765814</ele>
        <time>2022-04-14T16:43:25.056Z</time>
      </trkpt>
      <trkpt lat="52.776919" lon="8.192804">
        <ele>40.773876</ele>
        <time>2022-04-14T16:43:28.056Z</time>
      </trkpt>
      <trkpt lat="52.776841" lon="8.192949">
        <ele>40.781656</ele>
        <time>2022-04-14T16:43:31.056Z</time>
      </trkpt>
      <trkpt lat="52.776755" lon="8.193085">
        <ele>40.789544</ele>
        <time>2022-04-14T16:43:34.049Z</time>
      </trkpt>
      <trkpt lat="52.776681" lon="8.193217">
        <ele>40.796760</ele>
        <time>2022-04-14T16:43:37.054Z</time>
      </trkpt>
      <trkpt lat="52.776606" lon="8.193351">
        <ele>40.804080</ele>
        <time>2022-04-14T16:43:40.063Z</time>
      </trkpt>
      <trkpt lat="52.776526" lon="8.193468">
        <ele>40.811160</ele>
        <time>2022-04-14T16:43:43.058Z</time>
      </trkpt>
      <trkpt lat="52.776442" lon="8.193613">
        <ele>40.819209</ele>
        <time>2022-04-14T16:43:46.026Z</time>
      </trkpt>
      <trkpt lat="52.776361" lon="8.193751">
        <ele>40.826919</ele>
        <time>2022-04-14T16:43:49.029Z</time>
      </trkpt>
      <trkpt lat="52.776274" lon="8.193892">
        <ele>40.834994</ele>
        <time>2022-04-14T16:43:52.050Z</time>
      </trkpt>
      <trkpt lat="52.776189" lon="8.194034">
        <ele>40.843004</ele>
        <time>2022-04-14T16:43:55.049Z</time>
      </trkpt>
      <trkpt lat="52.776111" lon="8.194194">
        <ele>40.851243</ele>
        <time>2022-04-14T16:43:58.032Z</time>
      </trkpt>
      <trkpt lat="52.776031" lon="8.194355">
        <ele>40.527681</ele>
        <time>2022-04-14T16:44:01.036Z</time>
      </trkpt>
      <trkpt lat="52.775953" lon="8.194498">
        <ele>40.164221</ele>
        <time>2022-04-14T16:44:04.037Z</time>
      </trkpt>
      <trkpt lat="52.775868" lon="8.194658">
        <ele>39.762267</ele>
        <time>2022-04-14T16:44:07.060Z</time>
      </trkpt>
      <trkpt lat="52.775788" lon="8.194816">
        <ele>39.373334</ele>
        <time>2022-04-14T16:44:10.044Z</time>
      </trkpt>
      <trkpt lat="52.775707" lon="8.194991">
        <ele>38.957392</ele>
        <time>2022-04-14T16:44:13.039Z</time>
      </trkpt>
      <trkpt lat="52.775658" lon="8.195119">
        <ele>38.671458</ele>
        <time>2022-04-14T16:44:15.056Z</time>
      </trkpt>
      <trkpt lat="52.775603" lon="8.195255">
        <ele>38.362653</ele>
        <time>2022-04-14T16:44:17.021Z</time>
      </trkpt>
      <trkpt lat="52.775535" lon="8.195429">
        <ele>37.971623</ele>
        <time>2022-04-14T16:44:20.020Z</time>
      </trkpt>
      <trkpt lat="52.775488" lon="8.195574">
        <ele>37.661097</ele>
        <time>2022-04-14T16:44:22.040Z</time>
      </trkpt>
      <trkpt lat="52.775445" lon="8.195717">
        <ele>37.359652</ele>
        <time>2022-04-14T16:44:24.039Z</time>
      </trkpt>
      <trkpt lat="52.775395" lon="8.195870">
        <ele>37.031391</ele>
        <time>2022-04-14T16:44:26.024Z</time>
      </trkpt>
      <trkpt lat="52.775342" lon="8.196014">
        <ele>36.713210</ele>
        <time>2022-04-14T16:44:28.023Z</time>
      </trkpt>
      <trkpt lat="52.775302" lon="8.196157">
        <ele>36.415813</ele>
        <time>2022-04-14T16:44:30.023Z</time>
      </trkpt>
      <trkpt lat="52.775261" lon="8.196310">
        <ele>36.099932</ele>
        <time>2022-04-14T16:44:32.024Z</time>
      </trkpt>
      <trkpt lat="52.775223" lon="8.196470">
        <ele>35.775462</ele>
        <time>2022-04-14T16:44:34.022Z</time>
      </trkpt>
      <trkpt lat="52.775188" lon="8.196635">
        <ele>35.445403</ele>
        <time>2022-04-14T16:44:36.030Z</time>
      </trkpt>
      <trkpt lat="52.775164" lon="8.196797">
        <ele>35.169649</ele>
        <time>2022-04-14T16:44:38.030Z</time>
      </trkpt>
      <trkpt lat="52.775130" lon="8.196964">
        <ele>34.955626</ele>
        <time>2022-04-14T16:44:40.023Z</time>
      </trkpt>
      <trkpt lat="52.775108" lon="8.197134">
        <ele>34.744467</ele>
        <time>2022-04-14T16:44:42.034Z</time>
      </trkpt>
      <trkpt lat="52.775079" lon="8.197320">
        <ele>34.511162</ele>
        <time>2022-04-14T16:44:44.028Z</time>
      </trkpt>
      <trkpt lat="52.775049" lon="8.197497">
        <ele>34.287893</ele>
        <time>2022-04-14T16:44:46.036Z</time>
      </trkpt>
      <trkpt lat="52.775035" lon="8.197698">
        <ele>34.042139</ele>
        <time>2022-04-14T16:44:48.025Z</time>
      </trkpt>
      <trkpt lat="52.775013" lon="8.197896">
        <ele>33.797618</ele>
        <time>2022-04-14T16:44:50.063Z</time>
      </trkpt>
      <trkpt lat="52.774993" lon="8.198108">
        <ele>33.537003</ele>
        <time>2022-04-14T16:44:52.047Z</time>
      </trkpt>
      <trkpt lat="52.774979" lon="8.198311">
        <ele>33.288835</ele>
        <time>2022-04-14T16:44:54.037Z</time>
      </trkpt>
      <trkpt lat="52.774970" lon="8.198538">
        <ele>33.012521</ele>
        <time>2022-04-14T16:44:56.050Z</time>
      </trkpt>
      <trkpt lat="52.774961" lon="8.198757">
        <ele>32.745902</ele>
        <time>2022-04-14T16:44:58.093Z</time>
      </trkpt>
      <trkpt lat="52.774947" lon="8.198983">
        <ele>32.469959</ele>
        <time>2022-04-14T16:45:00.050Z</time>
      </trkpt>
      <trkpt lat="52.774933" lon="8.199206">
        <ele>32.197640</ele>
        <time>2022-04-14T16:45:02.051Z</time>
      </trkpt>
      <trkpt lat="52.774926" lon="8.199420">
        <ele>31.937328</ele>
        <time>2022-04-14T16:45:04.045Z</time>
      </trkpt>
      <trkpt lat="52.774932" lon="8.199635">
        <ele>31.675903</ele>
        <time>2022-04-14T16:45:06.051Z</time>
      </trkpt>
      <trkpt lat="52.774931" lon="8.199821">
        <ele>31.762461</ele>
        <time>2022-04-14T16:45:08.028Z</time>
      </trkpt>
      <trkpt lat="52.774927" lon="8.200019">
        <ele>31.942314</ele>
        <time>2022-04-14T16:45:10.054Z</time>
      </trkpt>
      <trkpt lat="52.774925" lon="8.200168">
        <ele>32.077617</ele>
        <time>2022-04-14T16:45:12.051Z</time>
      </trkpt>
      <trkpt lat="52.774935" lon="8.200346">
        <ele>32.239909</ele>
        <time>2022-04-14T16:45:14.028Z</time>
      </trkpt>
      <trkpt lat="52.774947" lon="8.200512">
        <ele>32.391683</ele>
        <time>2022-04-14T16:45:16.026Z</time>
      </trkpt>
      <trkpt lat="52.774930" lon="8.200695">
        <ele>32.559767</ele>
        <time>2022-04-14T16:45:18.018Z</time>
      </trkpt>
      <trkpt lat="52.774934" lon="8.200869">
        <ele>32.717846</ele>
        <time>2022-04-14T16:45:20.052Z</time>
      </trkpt>
      <trkpt lat="52.774922" lon="8.201031">
        <ele>32.866015</ele>
        <time>2022-04-14T16:45:22.042Z</time>
      </trkpt>
      <trkpt lat="52.774937" lon="8.201186">
        <ele>33.008521</ele>
        <time>2022-04-14T16:45:24.039Z</time>
      </trkpt>
      <trkpt lat="52.774946" lon="8.201343">
        <ele>33.151691</ele>
        <time>2022-04-14T16:45:26.053Z</time>
      </trkpt>
      <trkpt lat="52.774947" lon="8.201558">
        <ele>33.346884</ele>
        <time>2022-04-14T16:45:29.048Z</time>
      </trkpt>
      <trkpt lat="52.774956" lon="8.201708">
        <ele>33.483729</ele>
        <time>2022-04-14T16:45:31.060Z</time>
      </trkpt>
      <trkpt lat="52.774959" lon="8.201857">
        <ele>33.619073</ele>
        <time>2022-04-14T16:45:33.041Z</time>
      </trkpt>
      <trkpt lat="52.774949" lon="8.202025">
        <ele>33.772327</ele>
        <time>2022-04-14T16:45:35.043Z</time>
      </trkpt>
      <trkpt lat="52.774953" lon="8.202175">
        <ele>33.908636</ele>
        <time>2022-04-14T16:45:37.042Z</time>
      </trkpt>
      <trkpt lat="52.774946" lon="8.202396">
        <ele>34.109545</ele>
        <time>2022-04-14T16:45:40.046Z</time>
      </trkpt>
      <trkpt lat="52.774921" lon="8.202548">
        <ele>34.252547</ele>
        <time>2022-04-14T16:45:42.065Z</time>
      </trkpt>
      <trkpt lat="52.774934" lon="8.202707">
        <ele>34.381215</ele>
        <time>2022-04-14T16:45:44.045Z</time>
      </trkpt>
      <trkpt lat="52.774947" lon="8.202860">
        <ele>34.487517</ele>
        <time>2022-04-14T16:45:46.058Z</time>
      </trkpt>
      <trkpt lat="52.774962" lon="8.203022">
        <ele>34.600275</ele>
        <time>2022-04-14T16:45:48.039Z</time>
      </trkpt>
      <trkpt lat="52.774983" lon="8.203167">
        <ele>34.702859</ele>
        <time>2022-04-14T16:45:50.025Z</time>
      </trkpt>
      <trkpt lat="52.774971" lon="8.203323">
        <ele>34.811056</ele>
        <time>2022-04-14T16:45:52.029Z</time>
      </trkpt>
      <trkpt lat="52.774979" lon="8.203550">
        <ele>34.967503</ele>
        <time>2022-04-14T16:45:55.045Z</time>
      </trkpt>
      <trkpt lat="52.774983" lon="8.203711">
        <ele>35.078369</ele>
        <time>2022-04-14T16:45:57.042Z</time>
      </trkpt>
      <trkpt lat="52.774990" lon="8.203941">
        <ele>35.236816</ele>
        <time>2022-04-14T16:46:00.043Z</time>
      </trkpt>
      <trkpt lat="52.774997" lon="8.204140">
        <ele>35.373965</ele>
        <time>2022-04-14T16:46:03.040Z</time>
      </trkpt>
      <trkpt lat="52.774999" lon="8.204354">
        <ele>35.521221</ele>
        <time>2022-04-14T16:46:06.045Z</time>
      </trkpt>
      <trkpt lat="52.774994" lon="8.204505">
        <ele>35.625269</ele>
        <time>2022-04-14T16:46:08.050Z</time>
      </trkpt>
      <trkpt lat="52.774981" lon="8.204658">
        <ele>35.731571</ele>
        <time>2022-04-14T16:46:10.048Z</time>
      </trkpt>
      <trkpt lat="52.774993" lon="8.204819">
        <ele>35.843181</ele>
        <time>2022-04-14T16:46:12.040Z</time>
      </trkpt>
      <trkpt lat="52.774994" lon="8.205036">
        <ele>35.992488</ele>
        <time>2022-04-14T16:46:15.043Z</time>
      </trkpt>
      <trkpt lat="52.774995" lon="8.205207">
        <ele>36.110146</ele>
        <time>2022-04-14T16:46:17.043Z</time>
      </trkpt>
      <trkpt lat="52.775001" lon="8.205360">
        <ele>36.215635</ele>
        <time>2022-04-14T16:46:19.042Z</time>
      </trkpt>
      <trkpt lat="52.775008" lon="8.205521">
        <ele>36.326694</ele>
        <time>2022-04-14T16:46:21.043Z</time>
      </trkpt>
      <trkpt lat="52.775024" lon="8.205676">
        <ele>36.403734</ele>
        <time>2022-04-14T16:46:23.051Z</time>
      </trkpt>
      <trkpt lat="52.775031" lon="8.205879">
        <ele>36.472417</ele>
        <time>2022-04-14T16:46:26.051Z</time>
      </trkpt>
      <trkpt lat="52.775023" lon="8.206028">
        <ele>36.522946</ele>
        <time>2022-04-14T16:46:28.047Z</time>
      </trkpt>
      <trkpt lat="52.775029" lon="8.206182">
        <ele>36.575074</ele>
        <time>2022-04-14T16:46:30.049Z</time>
      </trkpt>
      <trkpt lat="52.775053" lon="8.206409">
        <ele>36.652916</ele>
        <time>2022-04-14T16:46:33.050Z</time>
      </trkpt>
      <trkpt lat="52.775066" lon="8.206632">
        <ele>36.728593</ele>
        <time>2022-04-14T16:46:36.039Z</time>
      </trkpt>
      <trkpt lat="52.775090" lon="8.206777">
        <ele>36.779373</ele>
        <time>2022-04-14T16:46:38.038Z</time>
      </trkpt>
      <trkpt lat="52.775121" lon="8.206991">
        <ele>36.853704</ele>
        <time>2022-04-14T16:46:41.038Z</time>
      </trkpt>
      <trkpt lat="52.775153" lon="8.207147">
        <ele>36.909347</ele>
        <time>2022-04-14T16:46:43.034Z</time>
      </trkpt>
      <trkpt lat="52.775202" lon="8.207356">
        <ele>36.985062</ele>
        <time>2022-04-14T16:46:46.010Z</time>
      </trkpt>
      <trkpt lat="52.775251" lon="8.207558">
        <ele>37.058577</ele>
        <time>2022-04-14T16:46:48.970Z</time>
      </trkpt>
      <trkpt lat="52.775310" lon="8.207708">
        <ele>37.119015</ele>
        <time>2022-04-14T16:46:50.974Z</time>
      </trkpt>
      <trkpt lat="52.775317" lon="8.207922">
        <ele>37.191408</ele>
        <time>2022-04-14T16:46:52.977Z</time>
      </trkpt>
      <trkpt lat="52.775363" lon="8.208063">
        <ele>37.245521</ele>
        <time>2022-04-14T16:46:55.981Z</time>
      </trkpt>
      <trkpt lat="52.775379" lon="8.208232">
        <ele>37.303302</ele>
        <time>2022-04-14T16:46:58.985Z</time>
      </trkpt>
      <trkpt lat="52.775399" lon="8.208414">
        <ele>37.365786</ele>
        <time>2022-04-14T16:47:01.988Z</time>
      </trkpt>
      <trkpt lat="52.775415" lon="8.208589">
        <ele>37.391473</ele>
        <time>2022-04-14T16:47:04.990Z</time>
      </trkpt>
      <trkpt lat="52.775447" lon="8.208760">
        <ele>37.408567</ele>
        <time>2022-04-14T16:47:07.992Z</time>
      </trkpt>
      <trkpt lat="52.775466" lon="8.208926">
        <ele>37.424702</ele>
        <time>2022-04-14T16:47:10.993Z</time>
      </trkpt>
      <trkpt lat="52.775486" lon="8.209088">
        <ele>37.440493</ele>
        <time>2022-04-14T16:47:13.995Z</time>
      </trkpt>
      <trkpt lat="52.775502" lon="8.209252">
        <ele>37.456358</ele>
        <time>2022-04-14T16:47:16.996Z</time>
      </trkpt>
      <trkpt lat="52.775522" lon="8.209405">
        <ele>37.471307</ele>
        <time>2022-04-14T16:47:19.997Z</time>
      </trkpt>
      <trkpt lat="52.775560" lon="8.209544">
        <ele>37.485875</ele>
        <time>2022-04-14T16:47:22.997Z</time>
      </trkpt>
      <trkpt lat="52.775585" lon="8.209692">
        <ele>37.500550</ele>
        <time>2022-04-14T16:47:25.998Z</time>
      </trkpt>
      <trkpt lat="52.775608" lon="8.209852">
        <ele>37.516256</ele>
        <time>2022-04-14T16:47:28.998Z</time>
      </trkpt>
      <trkpt lat="52.775629" lon="8.209998">
        <ele>37.530588</ele>
        <time>2022-04-14T16:47:31.999Z</time>
      </trkpt>
      <trkpt lat="52.775645" lon="8.210182">
        <ele>37.548341</ele>
        <time>2022-04-14T16:47:34.999Z</time>
      </trkpt>
      <trkpt lat="52.775651" lon="8.210358">
        <ele>37.565176</ele>
        <time>2022-04-14T16:47:37.999Z</time>
      </trkpt>
      <trkpt lat="52.775656" lon="8.210561">
        <ele>37.584580</ele>
        <time>2022-04-14T16:47:40.999Z</time>
      </trkpt>
      <trkpt lat="52.775673" lon="8.210759">
        <ele>37.603679</ele>
        <time>2022-04-14T16:47:44.000Z</time>
      </trkpt>
      <trkpt lat="52.775654" lon="8.210967">
        <ele>37.623769</ele>
        <time>2022-04-14T16:47:47.000Z</time>
      </trkpt>
      <trkpt lat="52.775606" lon="8.211111">
        <ele>37.639471</ele>
        <time>2022-04-14T16:47:49.000Z</time>
      </trkpt>
      <trkpt lat="52.775557" lon="8.211297">
        <ele>37.658846</ele>
        <time>2022-04-14T16:47:52.000Z</time>
      </trkpt>
      <trkpt lat="52.775535" lon="8.211499">
        <ele>37.617954</ele>
        <time>2022-04-14T16:47:55.000Z</time>
      </trkpt>
      <trkpt lat="52.775486" lon="8.211705">
        <ele>37.561394</ele>
        <time>2022-04-14T16:47:58.000Z</time>
      </trkpt>
      <trkpt lat="52.775466" lon="8.211880">
        <ele>37.515887</ele>
        <time>2022-04-14T16:48:01.000Z</time>
      </trkpt>
      <trkpt lat="52.775437" lon="8.212037">
        <ele>37.473943</ele>
        <time>2022-04-14T16:48:04.000Z</time>
      </trkpt>
      <trkpt lat="52.775394" lon="8.212242">
        <ele>37.418502</ele>
        <time>2022-04-14T16:48:07.000Z</time>
      </trkpt>
      <trkpt lat="52.775369" lon="8.212424">
        <ele>37.370814</ele>
        <time>2022-04-14T16:48:10.000Z</time>
      </trkpt>
      <trkpt lat="52.775301" lon="8.212543">
        <ele>37.328986</ele>
        <time>2022-04-14T16:48:13.000Z</time>
      </trkpt>
      <trkpt lat="52.775186" lon="8.212546">
        <ele>37.280406</ele>
        <time>2022-04-14T16:48:16.000Z</time>
      </trkpt>
      <trkpt lat="52.775059" lon="8.212538">
        <ele>37.226724</ele>
        <time>2022-04-14T16:48:19.000Z</time>
      </trkpt>
      <trkpt lat="52.774947" lon="8.212514">
        <ele>37.179021</ele>
        <time>2022-04-14T16:48:22.000Z</time>
      </trkpt>
      <trkpt lat="52.774828" lon="8.212500">
        <ele>37.128629</ele>
        <time>2022-04-14T16:48:25.000Z</time>
      </trkpt>
      <trkpt lat="52.774705" lon="8.212466">
        <ele>37.075955</ele>
        <time>2022-04-14T16:48:28.000Z</time>
      </trkpt>
      <trkpt lat="52.774589" lon="8.212394">
        <ele>37.023618</ele>
        <time>2022-04-14T16:48:31.000Z</time>
      </trkpt>
      <trkpt lat="52.774507" lon="8.212282">
        <ele>36.978688</ele>
        <time>2022-04-14T16:48:34.000Z</time>
      </trkpt>
      <trkpt lat="52.774486" lon="8.212123">
        <ele>36.937103</ele>
        <time>2022-04-14T16:48:36.000Z</time>
      </trkpt>
      <trkpt lat="52.774472" lon="8.211976">
        <ele>36.891375</ele>
        <time>2022-04-14T16:48:38.000Z</time>
      </trkpt>
      <trkpt lat="52.774449" lon="8.211819">
        <ele>36.750376</ele>
        <time>2022-04-14T16:48:40.000Z</time>
      </trkpt>
      <trkpt lat="52.774417" lon="8.211669">
        <ele>36.611546</ele>
        <time>2022-04-14T16:48:41.999Z</time>
      </trkpt>
      <trkpt lat="52.774380" lon="8.211453">
        <ele>36.415597</ele>
        <time>2022-04-14T16:48:44.999Z</time>
      </trkpt>
      <trkpt lat="52.774353" lon="8.211309">
        <ele>36.284007</ele>
        <time>2022-04-14T16:48:46.999Z</time>
      </trkpt>
      <trkpt lat="52.774334" lon="8.211102">
        <ele>36.101258</ele>
        <time>2022-04-14T16:48:49.999Z</time>
      </trkpt>
      <trkpt lat="52.774308" lon="8.210904">
        <ele>35.924409</ele>
        <time>2022-04-14T16:48:52.999Z</time>
      </trkpt>
      <trkpt lat="52.774280" lon="8.210709">
        <ele>35.749473</ele>
        <time>2022-04-14T16:48:55.999Z</time>
      </trkpt>
      <trkpt lat="52.774239" lon="8.210576">
        <ele>35.619180</ele>
        <time>2022-04-14T16:48:57.999Z</time>
      </trkpt>
      <trkpt lat="52.774165" lon="8.210401">
        <ele>35.432813</ele>
        <time>2022-04-14T16:49:00.999Z</time>
      </trkpt>
      <trkpt lat="52.774064" lon="8.210282">
        <ele>35.253857</ele>
        <time>2022-04-14T16:49:03.999Z</time>
      </trkpt>
      <trkpt lat="52.773941" lon="8.210190">
        <ele>35.059065</ele>
        <time>2022-04-14T16:49:06.999Z</time>
      </trkpt>
      <trkpt lat="52.773841" lon="8.210137">
        <ele>34.907546</ele>
        <time>2022-04-14T16:49:08.999Z</time>
      </trkpt>
      <trkpt lat="52.773751" lon="8.210074">
        <ele>34.766527</ele>
        <time>2022-04-14T16:49:10.999Z</time>
      </trkpt>
      <trkpt lat="52.773660" lon="8.210026">
        <ele>34.628705</ele>
        <time>2022-04-14T16:49:12.999Z</time>
      </trkpt>
      <trkpt lat="52.773532" lon="8.209945">
        <ele>34.430951</ele>
        <time>2022-04-14T16:49:15.999Z</time>
      </trkpt>
      <trkpt lat="52.773425" lon="8.209900">
        <ele>34.296341</ele>
        <time>2022-04-14T16:49:17.999Z</time>
      </trkpt>
      <trkpt lat="52.773326" lon="8.209853">
        <ele>34.251201</ele>
        <time>2022-04-14T16:49:19.999Z</time>
      </trkpt>
      <trkpt lat="52.773223" lon="8.209806">
        <ele>34.204373</ele>
        <time>2022-04-14T16:49:21.999Z</time>
      </trkpt>
      <trkpt lat="52.773109" lon="8.209734">
        <ele>34.150890</ele>
        <time>2022-04-14T16:49:24.999Z</time>
      </trkpt>
      <trkpt lat="52.772977" lon="8.209685">
        <ele>34.091601</ele>
        <time>2022-04-14T16:49:27.999Z</time>
      </trkpt>
      <trkpt lat="52.772846" lon="8.209614">
        <ele>34.031184</ele>
        <time>2022-04-14T16:49:30.999Z</time>
      </trkpt>
      <trkpt lat="52.772741" lon="8.209566">
        <ele>33.983441</ele>
        <time>2022-04-14T16:49:32.999Z</time>
      </trkpt>
      <trkpt lat="52.772632" lon="8.209513">
        <ele>33.933648</ele>
        <time>2022-04-14T16:49:34.999Z</time>
      </trkpt>
      <trkpt lat="52.772556" lon="8.209422">
        <ele>33.892521</ele>
        <time>2022-04-14T16:49:36.999Z</time>
      </trkpt>
      <trkpt lat="52.772478" lon="8.209335">
        <ele>33.851284</ele>
        <time>2022-04-14T16:49:38.999Z</time>
      </trkpt>
      <trkpt lat="52.772395" lon="8.209240">
        <ele>33.807040</ele>
        <time>2022-04-14T16:49:40.999Z</time>
      </trkpt>
      <trkpt lat="52.772298" lon="8.209148">
        <ele>33.758029</ele>
        <time>2022-04-14T16:49:42.998Z</time>
      </trkpt>
      <trkpt lat="52.772199" lon="8.209075">
        <ele>33.710522</ele>
        <time>2022-04-14T16:49:44.998Z</time>
      </trkpt>
      <trkpt lat="52.772109" lon="8.209013">
        <ele>33.667792</ele>
        <time>2022-04-14T16:49:46.998Z</time>
      </trkpt>
      <trkpt lat="52.771983" lon="8.208986">
        <ele>33.612111</ele>
        <time>2022-04-14T16:49:49.998Z</time>
      </trkpt>
      <trkpt lat="52.771869" lon="8.209000">
        <ele>33.562013</ele>
        <time>2022-04-14T16:49:52.998Z</time>
      </trkpt>
      <trkpt lat="52.771734" lon="8.208985">
        <ele>33.481384</ele>
        <time>2022-04-14T16:49:55.998Z</time>
      </trkpt>
      <trkpt lat="52.771623" lon="8.209005">
        <ele>33.367814</ele>
        <time>2022-04-14T16:49:58.998Z</time>
      </trkpt>
      <trkpt lat="52.771516" lon="8.209005">
        <ele>33.258981</ele>
        <time>2022-04-14T16:50:00.998Z</time>
      </trkpt>
      <trkpt lat="52.771422" lon="8.208998">
        <ele>33.163274</ele>
        <time>2022-04-14T16:50:02.998Z</time>
      </trkpt>
      <trkpt lat="52.771323" lon="8.208997">
        <ele>33.062577</ele>
        <time>2022-04-14T16:50:04.998Z</time>
      </trkpt>
      <trkpt lat="52.771228" lon="8.208995">
        <ele>32.965942</ele>
        <time>2022-04-14T16:50:06.998Z</time>
      </trkpt>
      <trkpt lat="52.771132" lon="8.208987">
        <ele>32.868174</ele>
        <time>2022-04-14T16:50:08.998Z</time>
      </trkpt>
      <trkpt lat="52.771030" lon="8.208975">
        <ele>32.764164</ele>
        <time>2022-04-14T16:50:10.998Z</time>
      </trkpt>
      <trkpt lat="52.770923" lon="8.208994">
        <ele>32.654705</ele>
        <time>2022-04-14T16:50:12.998Z</time>
      </trkpt>
      <trkpt lat="52.770790" lon="8.208981">
        <ele>32.519191</ele>
        <time>2022-04-14T16:50:15.998Z</time>
      </trkpt>
      <trkpt lat="52.770694" lon="8.208970">
        <ele>32.421313</ele>
        <time>2022-04-14T16:50:17.998Z</time>
      </trkpt>
      <trkpt lat="52.770591" lon="8.208956">
        <ele>32.316195</ele>
        <time>2022-04-14T16:50:19.998Z</time>
      </trkpt>
      <trkpt lat="52.770486" lon="8.208945">
        <ele>32.209182</ele>
        <time>2022-04-14T16:50:21.998Z</time>
      </trkpt>
      <trkpt lat="52.770390" lon="8.208941">
        <ele>32.111507</ele>
        <time>2022-04-14T16:50:23.998Z</time>
      </trkpt>
      <trkpt lat="52.770283" lon="8.208929">
        <ele>32.002424</ele>
        <time>2022-04-14T16:50:25.998Z</time>
      </trkpt>
      <trkpt lat="52.770186" lon="8.208915">
        <ele>31.903388</ele>
        <time>2022-04-14T16:50:27.998Z</time>
      </trkpt>
      <trkpt lat="52.770090" lon="8.208898">
        <ele>31.805185</ele>
        <time>2022-04-14T16:50:29.998Z</time>
      </trkpt>
      <trkpt lat="52.769986" lon="8.208882">
        <ele>31.698946</ele>
        <time>2022-04-14T16:50:31.998Z</time>
      </trkpt>
      <trkpt lat="52.769896" lon="8.208849">
        <ele>31.714478</ele>
        <time>2022-04-14T16:50:33.998Z</time>
      </trkpt>
      <trkpt lat="52.769763" lon="8.208825">
        <ele>31.754960</ele>
        <time>2022-04-14T16:50:36.998Z</time>
      </trkpt>
      <trkpt lat="52.769668" lon="8.208803">
        <ele>31.783986</ele>
        <time>2022-04-14T16:50:38.998Z</time>
      </trkpt>
      <trkpt lat="52.769542" lon="8.208761">
        <ele>31.822879</ele>
        <time>2022-04-14T16:50:41.997Z</time>
      </trkpt>
      <trkpt lat="52.769443" lon="8.208730">
        <ele>31.853368</ele>
        <time>2022-04-14T16:50:43.997Z</time>
      </trkpt>
      <trkpt lat="52.769352" lon="8.208709">
        <ele>31.881170</ele>
        <time>2022-04-14T16:50:45.997Z</time>
      </trkpt>
      <trkpt lat="52.769222" lon="8.208705">
        <ele>31.920512</ele>
        <time>2022-04-14T16:50:48.997Z</time>
      </trkpt>
      <trkpt lat="52.769125" lon="8.208672">
        <ele>31.950478</ele>
        <time>2022-04-14T16:50:50.997Z</time>
      </trkpt>
      <trkpt lat="52.768997" lon="8.208589">
        <ele>31.992083</ele>
        <time>2022-04-14T16:50:53.997Z</time>
      </trkpt>
      <trkpt lat="52.768867" lon="8.208539">
        <ele>32.032469</ele>
        <time>2022-04-14T16:50:56.997Z</time>
      </trkpt>
      <trkpt lat="52.768775" lon="8.208484">
        <ele>32.062072</ele>
        <time>2022-04-14T16:50:58.997Z</time>
      </trkpt>
      <trkpt lat="52.768672" lon="8.208423">
        <ele>32.095178</ele>
        <time>2022-04-14T16:51:00.997Z</time>
      </trkpt>
      <trkpt lat="52.768553" lon="8.208372">
        <ele>32.132376</ele>
        <time>2022-04-14T16:51:03.997Z</time>
      </trkpt>
      <trkpt lat="52.768430" lon="8.208305">
        <ele>32.171563</ele>
        <time>2022-04-14T16:51:06.997Z</time>
      </trkpt>
      <trkpt lat="52.768298" lon="8.208272">
        <ele>32.211958</ele>
        <time>2022-04-14T16:51:09.997Z</time>
      </trkpt>
      <trkpt lat="52.768167" lon="8.208192">
        <ele>32.318551</ele>
        <time>2022-04-14T16:51:12.997Z</time>
      </trkpt>
      <trkpt lat="52.768076" lon="8.208154">
        <ele>32.435816</ele>
        <time>2022-04-14T16:51:14.997Z</time>
      </trkpt>
      <trkpt lat="52.767951" lon="8.208084">
        <ele>32.600708</ele>
        <time>2022-04-14T16:51:17.997Z</time>
      </trkpt>
      <trkpt lat="52.767827" lon="8.208033">
        <ele>32.760355</ele>
        <time>2022-04-14T16:51:20.997Z</time>
      </trkpt>
      <trkpt lat="52.767739" lon="8.207993">
        <ele>32.874381</ele>
        <time>2022-04-14T16:51:22.997Z</time>
      </trkpt>
      <trkpt lat="52.767641" lon="8.207945">
        <ele>33.002083</ele>
        <time>2022-04-14T16:51:24.997Z</time>
      </trkpt>
      <trkpt lat="52.767519" lon="8.207882">
        <ele>33.161772</ele>
        <time>2022-04-14T16:51:27.997Z</time>
      </trkpt>
      <trkpt lat="52.767396" lon="8.207842">
        <ele>33.318392</ele>
        <time>2022-04-14T16:51:30.997Z</time>
      </trkpt>
      <trkpt lat="52.767283" lon="8.207768">
        <ele>33.470249</ele>
        <time>2022-04-14T16:51:33.997Z</time>
      </trkpt>
      <trkpt lat="52.767174" lon="8.207717">
        <ele>33.611782</ele>
        <time>2022-04-14T16:51:36.997Z</time>
      </trkpt>
      <trkpt lat="52.767052" lon="8.207640">
        <ele>33.774941</ele>
        <time>2022-04-14T16:51:39.997Z</time>
      </trkpt>
      <trkpt lat="52.766940" lon="8.207580">
        <ele>33.922038</ele>
        <time>2022-04-14T16:51:42.996Z</time>
      </trkpt>
      <trkpt lat="52.766853" lon="8.207527">
        <ele>34.037882</ele>
        <time>2022-04-14T16:51:44.996Z</time>
      </trkpt>
      <trkpt lat="52.766765" lon="8.207482">
        <ele>34.152969</ele>
        <time>2022-04-14T16:51:46.996Z</time>
      </trkpt>
      <trkpt lat="52.766680" lon="8.207411">
        <ele>34.271958</ele>
        <time>2022-04-14T16:51:48.996Z</time>
      </trkpt>
      <trkpt lat="52.766590" lon="8.207351">
        <ele>34.393204</ele>
        <time>2022-04-14T16:51:50.996Z</time>
      </trkpt>
      <trkpt lat="52.766456" lon="8.207299">
        <ele>34.494270</ele>
        <time>2022-04-14T16:51:53.996Z</time>
      </trkpt>
      <trkpt lat="52.766320" lon="8.207242">
        <ele>34.522210</ele>
        <time>2022-04-14T16:51:56.996Z</time>
      </trkpt>
      <trkpt lat="52.766221" lon="8.207199">
        <ele>34.542594</ele>
        <time>2022-04-14T16:51:58.996Z</time>
      </trkpt>
      <trkpt lat="52.766132" lon="8.207163">
        <ele>34.560841</ele>
        <time>2022-04-14T16:52:00.996Z</time>
      </trkpt>
      <trkpt lat="52.766037" lon="8.207130">
        <ele>34.580173</ele>
        <time>2022-04-14T16:52:02.996Z</time>
      </trkpt>
      <trkpt lat="52.765934" lon="8.207095">
        <ele>34.601113</ele>
        <time>2022-04-14T16:52:04.996Z</time>
      </trkpt>
      <trkpt lat="52.765832" lon="8.207072">
        <ele>34.621614</ele>
        <time>2022-04-14T16:52:06.996Z</time>
      </trkpt>
      <trkpt lat="52.765730" lon="8.207093">
        <ele>34.642083</ele>
        <time>2022-04-14T16:52:08.996Z</time>
      </trkpt>
      <trkpt lat="52.765628" lon="8.207101">
        <ele>34.662418</ele>
        <time>2022-04-14T16:52:10.996Z</time>
      </trkpt>
      <trkpt lat="52.765527" lon="8.207107">
        <ele>34.682544</ele>
        <time>2022-04-14T16:52:12.996Z</time>
      </trkpt>
      <trkpt lat="52.765431" lon="8.207112">
        <ele>34.701671</ele>
        <time>2022-04-14T16:52:14.996Z</time>
      </trkpt>
      <trkpt lat="52.765339" lon="8.207135">
        <ele>34.720200</ele>
        <time>2022-04-14T16:52:16.996Z</time>
      </trkpt>
      <trkpt lat="52.765245" lon="8.207151">
        <ele>34.739019</ele>
        <time>2022-04-14T16:52:18.996Z</time>
      </trkpt>
      <trkpt lat="52.765144" lon="8.207159">
        <ele>34.759155</ele>
        <time>2022-04-14T16:52:20.996Z</time>
      </trkpt>
      <trkpt lat="52.765045" lon="8.207177">
        <ele>34.778989</ele>
        <time>2022-04-14T16:52:22.996Z</time>
      </trkpt>
      <trkpt lat="52.764949" lon="8.207176">
        <ele>34.798107</ele>
        <time>2022-04-14T16:52:24.996Z</time>
      </trkpt>
      <trkpt lat="52.764840" lon="8.207182">
        <ele>34.819825</ele>
        <time>2022-04-14T16:52:26.996Z</time>
      </trkpt>
      <trkpt lat="52.764738" lon="8.207203">
        <ele>34.839749</ele>
        <time>2022-04-14T16:52:28.996Z</time>
      </trkpt>
      <trkpt lat="52.764639" lon="8.207212">
        <ele>34.851131</ele>
        <time>2022-04-14T16:52:30.996Z</time>
      </trkpt>
      <trkpt lat="52.764534" lon="8.207237">
        <ele>34.863309</ele>
        <time>2022-04-14T16:52:32.996Z</time>
      </trkpt>
      <trkpt lat="52.764428" lon="8.207248">
        <ele>34.875501</ele>
        <time>2022-04-14T16:52:34.996Z</time>
      </trkpt>
      <trkpt lat="52.764328" lon="8.207248">
        <ele>34.886981</ele>
        <time>2022-04-14T16:52:36.996Z</time>
      </trkpt>
      <trkpt lat="52.764220" lon="8.207268">
        <ele>34.899456</ele>
        <time>2022-04-14T16:52:38.996Z</time>
      </trkpt>
      <trkpt lat="52.764110" lon="8.207284">
        <ele>34.912132</ele>
        <time>2022-04-14T16:52:40.995Z</time>
      </trkpt>
      <trkpt lat="52.764010" lon="8.207275">
        <ele>34.923629</ele>
        <time>2022-04-14T16:52:42.995Z</time>
      </trkpt>
      <trkpt lat="52.763906" lon="8.207303">
        <ele>34.935725</ele>
        <time>2022-04-14T16:52:44.995Z</time>
      </trkpt>
      <trkpt lat="52.763804" lon="8.207311">
        <ele>34.947447</ele>
        <time>2022-04-14T16:52:46.995Z</time>
      </trkpt>
      <trkpt lat="52.763706" lon="8.207372">
        <ele>34.959469</ele>
        <time>2022-04-14T16:52:48.995Z</time>
      </trkpt>
      <trkpt lat="52.763636" lon="8.207505">
        <ele>34.971713</ele>
        <time>2022-04-14T16:52:50.995Z</time>
      </trkpt>
      <trkpt lat="52.763625" lon="8.207687">
        <ele>34.984418</ele>
        <time>2022-04-14T16:52:52.995Z</time>
      </trkpt>
      <trkpt lat="52.763622" lon="8.207873">
        <ele>34.997343</ele>
        <time>2022-04-14T16:52:54.995Z</time>
      </trkpt>
      <trkpt lat="52.763638" lon="8.208049">
        <ele>35.009706</ele>
        <time>2022-04-14T16:52:56.995Z</time>
      </trkpt>
      <trkpt lat="52.763643" lon="8.208234">
        <ele>35.022569</ele>
        <time>2022-04-14T16:52:58.995Z</time>
      </trkpt>
      <trkpt lat="52.763643" lon="8.208407">
        <ele>35.034586</ele>
        <time>2022-04-14T16:53:00.995Z</time>
      </trkpt>
      <trkpt lat="52.763649" lon="8.208582">
        <ele>35.050771</ele>
        <time>2022-04-14T16:53:02.995Z</time>
      </trkpt>
      <trkpt lat="52.763661" lon="8.208750">
        <ele>35.099361</ele>
        <time>2022-04-14T16:53:04.995Z</time>
      </trkpt>
      <trkpt lat="52.763668" lon="8.208922">
        <ele>35.148876</ele>
        <time>2022-04-14T16:53:06.995Z</time>
      </trkpt>
      <trkpt lat="52.763669" lon="8.209105">
        <ele>35.201441</ele>
        <time>2022-04-14T16:53:08.995Z</time>
      </trkpt>
      <trkpt lat="52.763676" lon="8.209266">
        <ele>35.247804</ele>
        <time>2022-04-14T16:53:10.995Z</time>
      </trkpt>
      <trkpt lat="52.763683" lon="8.209421">
        <ele>35.292449</ele>
        <time>2022-04-14T16:53:12.995Z</time>
      </trkpt>
      <trkpt lat="52.763692" lon="8.209588">
        <ele>35.340606</ele>
        <time>2022-04-14T16:53:14.995Z</time>
      </trkpt>
      <trkpt lat="52.763700" lon="8.209748">
        <ele>35.386719</ele>
        <time>2022-04-14T16:53:16.995Z</time>
      </trkpt>
      <trkpt lat="52.763694" lon="8.209970">
        <ele>35.450548</ele>
        <time>2022-04-14T16:53:19.995Z</time>
      </trkpt>
      <trkpt lat="52.763595" lon="8.210070">
        <ele>35.505624</ele>
        <time>2022-04-14T16:53:22.995Z</time>
      </trkpt>
      <trkpt lat="52.763499" lon="8.210041">
        <ele>35.551948</ele>
        <time>2022-04-14T16:53:24.995Z</time>
      </trkpt>
      <trkpt lat="52.763407" lon="8.209987">
        <ele>35.598291</ele>
        <time>2022-04-14T16:53:26.995Z</time>
      </trkpt>
      <trkpt lat="52.763316" lon="8.209949">
        <ele>35.642844</ele>
        <time>2022-04-14T16:53:28.995Z</time>
      </trkpt>
      <trkpt lat="52.763225" lon="8.209924">
        <ele>35.686632</ele>
        <time>2022-04-14T16:53:30.995Z</time>
      </trkpt>
      <trkpt lat="52.763132" lon="8.209856">
        <ele>35.734905</ele>
        <time>2022-04-14T16:53:32.995Z</time>
      </trkpt>
      <trkpt lat="52.763045" lon="8.209815">
        <ele>35.777849</ele>
        <time>2022-04-14T16:53:34.995Z</time>
      </trkpt>
      <trkpt lat="52.762953" lon="8.209784">
        <ele>35.822418</ele>
        <time>2022-04-14T16:53:36.995Z</time>
      </trkpt>
      <trkpt lat="52.762862" lon="8.209736">
        <ele>35.867760</ele>
        <time>2022-04-14T16:53:38.994Z</time>
      </trkpt>
      <trkpt lat="52.762763" lon="8.209693">
        <ele>35.877315</ele>
        <time>2022-04-14T16:53:40.994Z</time>
      </trkpt>
      <trkpt lat="52.762668" lon="8.209632">
        <ele>35.815198</ele>
        <time>2022-04-14T16:53:42.994Z</time>
      </trkpt>
      <trkpt lat="52.762572" lon="8.209580">
        <ele>35.753626</ele>
        <time>2022-04-14T16:53:44.994Z</time>
      </trkpt>
      <trkpt lat="52.762487" lon="8.209532">
        <ele>35.698880</ele>
        <time>2022-04-14T16:53:46.994Z</time>
      </trkpt>
      <trkpt lat="52.762396" lon="8.209482">
        <ele>35.640434</ele>
        <time>2022-04-14T16:53:48.994Z</time>
      </trkpt>
      <trkpt lat="52.762297" lon="8.209420">
        <ele>35.575909</ele>
        <time>2022-04-14T16:53:50.994Z</time>
      </trkpt>
      <trkpt lat="52.762209" lon="8.209328">
        <ele>35.512444</ele>
        <time>2022-04-14T16:53:52.994Z</time>
      </trkpt>
      <trkpt lat="52.762121" lon="8.209282">
        <ele>35.456192</ele>
        <time>2022-04-14T16:53:54.994Z</time>
      </trkpt>
      <trkpt lat="52.762021" lon="8.209230">
        <ele>35.392299</ele>
        <time>2022-04-14T16:53:56.994Z</time>
      </trkpt>
      <trkpt lat="52.761919" lon="8.209177">
        <ele>35.327132</ele>
        <time>2022-04-14T16:53:58.994Z</time>
      </trkpt>
      <trkpt lat="52.761808" lon="8.209119">
        <ele>35.256180</ele>
        <time>2022-04-14T16:54:00.994Z</time>
      </trkpt>
      <trkpt lat="52.761709" lon="8.209068">
        <ele>35.192979</ele>
        <time>2022-04-14T16:54:02.994Z</time>
      </trkpt>
      <trkpt lat="52.761598" lon="8.209054">
        <ele>35.125131</ele>
        <time>2022-04-14T16:54:04.994Z</time>
      </trkpt>
      <trkpt lat="52.761497" lon="8.208993">
        <ele>35.059592</ele>
        <time>2022-04-14T16:54:06.994Z</time>
      </trkpt>
      <trkpt lat="52.761392" lon="8.208931">
        <ele>34.991636</ele>
        <time>2022-04-14T16:54:08.994Z</time>
      </trkpt>
      <trkpt lat="52.761286" lon="8.208875">
        <ele>34.923811</ele>
        <time>2022-04-14T16:54:10.994Z</time>
      </trkpt>
      <trkpt lat="52.761197" lon="8.208834">
        <ele>34.867500</ele>
        <time>2022-04-14T16:54:12.994Z</time>
      </trkpt>
      <trkpt lat="52.761098" lon="8.208778">
        <ele>34.803725</ele>
        <time>2022-04-14T16:54:14.994Z</time>
      </trkpt>
      <trkpt lat="52.760998" lon="8.208729">
        <ele>34.670131</ele>
        <time>2022-04-14T16:54:16.994Z</time>
      </trkpt>
      <trkpt lat="52.760891" lon="8.208689">
        <ele>34.528818</ele>
        <time>2022-04-14T16:54:18.994Z</time>
      </trkpt>
      <trkpt lat="52.760797" lon="8.208649">
        <ele>34.403784</ele>
        <time>2022-04-14T16:54:20.994Z</time>
      </trkpt>
      <trkpt lat="52.760701" lon="8.208596">
        <ele>34.273406</ele>
        <time>2022-04-14T16:54:22.994Z</time>
      </trkpt>
      <trkpt lat="52.760612" lon="8.208497">
        <ele>34.135209</ele>
        <time>2022-04-14T16:54:24.994Z</time>
      </trkpt>
      <trkpt lat="52.760514" lon="8.208446">
        <ele>34.002860</ele>
        <time>2022-04-14T16:54:26.994Z</time>
      </trkpt>
      <trkpt lat="52.760407" lon="8.208268">
        <ele>33.807287</ele>
        <time>2022-04-14T16:54:29.994Z</time>
      </trkpt>
      <trkpt lat="52.760451" lon="8.208128">
        <ele>33.684315</ele>
        <time>2022-04-14T16:54:31.994Z</time>
      </trkpt>
      <trkpt lat="52.760502" lon="8.207996">
        <ele>33.562237</ele>
        <time>2022-04-14T16:54:33.994Z</time>
      </trkpt>
      <trkpt lat="52.760564" lon="8.207871">
        <ele>33.436251</ele>
        <time>2022-04-14T16:54:35.994Z</time>
      </trkpt>
      <trkpt lat="52.760620" lon="8.207690">
        <ele>33.277790</ele>
        <time>2022-04-14T16:54:38.993Z</time>
      </trkpt>
      <trkpt lat="52.760577" lon="8.207550">
        <ele>33.155407</ele>
        <time>2022-04-14T16:54:40.993Z</time>
      </trkpt>
      <trkpt lat="52.760445" lon="8.207455">
        <ele>32.969948</ele>
        <time>2022-04-14T16:54:43.993Z</time>
      </trkpt>
      <trkpt lat="52.760326" lon="8.207372">
        <ele>32.803567</ele>
        <time>2022-04-14T16:54:46.993Z</time>
      </trkpt>
      <trkpt lat="52.760238" lon="8.207292">
        <ele>32.674190</ele>
        <time>2022-04-14T16:54:48.993Z</time>
      </trkpt>
      <trkpt lat="52.760144" lon="8.207207">
        <ele>32.536163</ele>
        <time>2022-04-14T16:54:50.993Z</time>
      </trkpt>
      <trkpt lat="52.760028" lon="8.207113">
        <ele>32.358560</ele>
        <time>2022-04-14T16:54:53.993Z</time>
      </trkpt>
      <trkpt lat="52.759938" lon="8.207052">
        <ele>32.221220</ele>
        <time>2022-04-14T16:54:55.993Z</time>
      </trkpt>
      <trkpt lat="52.759837" lon="8.206962">
        <ele>32.059212</ele>
        <time>2022-04-14T16:54:58.993Z</time>
      </trkpt>
      <trkpt lat="52.759749" lon="8.206915">
        <ele>31.928642</ele>
        <time>2022-04-14T16:55:00.993Z</time>
      </trkpt>
      <trkpt lat="52.759655" lon="8.206864">
        <ele>31.788958</ele>
        <time>2022-04-14T16:55:02.993Z</time>
      </trkpt>
      <trkpt lat="52.759561" lon="8.206807">
        <ele>31.647591</ele>
        <time>2022-04-14T16:55:04.993Z</time>
      </trkpt>
      <trkpt lat="52.759476" lon="8.206737">
        <ele>31.513507</ele>
        <time>2022-04-14T16:55:06.993Z</time>
      </trkpt>
      <trkpt lat="52.759363" lon="8.206650">
        <ele>31.337501</ele>
        <time>2022-04-14T16:55:09.993Z</time>
      </trkpt>
      <trkpt lat="52.759244" lon="8.206582">
        <ele>31.159730</ele>
        <time>2022-04-14T16:55:12.993Z</time>
      </trkpt>
      <trkpt lat="52.759120" lon="8.206485">
        <ele>30.966035</ele>
        <time>2022-04-14T16:55:15.993Z</time>
      </trkpt>
      <trkpt lat="52.758996" lon="8.206405">
        <ele>30.778096</ele>
        <time>2022-04-14T16:55:18.993Z</time>
      </trkpt>
      <trkpt lat="52.758913" lon="8.206343">
        <ele>30.649495</ele>
        <time>2022-04-14T16:55:20.993Z</time>
      </trkpt>
      <trkpt lat="52.758816" lon="8.206283">
        <ele>30.503266</ele>
        <time>2022-04-14T16:55:22.993Z</time>
      </trkpt>
      <trkpt lat="52.758729" lon="8.206199">
        <ele>30.361004</ele>
        <time>2022-04-14T16:55:24.993Z</time>
      </trkpt>
      <trkpt lat="52.758633" lon="8.206087">
        <ele>30.195089</ele>
        <time>2022-04-14T16:55:27.993Z</time>
      </trkpt>
      <trkpt lat="52.758562" lon="8.205980">
        <ele>30.059420</ele>
        <time>2022-04-14T16:55:29.993Z</time>
      </trkpt>
      <trkpt lat="52.758491" lon="8.205860">
        <ele>29.963625</ele>
        <time>2022-04-14T16:55:31.993Z</time>
      </trkpt>
      <trkpt lat="52.758422" lon="8.205734">
        <ele>30.043333</ele>
        <time>2022-04-14T16:55:33.993Z</time>
      </trkpt>
      <trkpt lat="52.758384" lon="8.205582">
        <ele>30.120475</ele>
        <time>2022-04-14T16:55:35.993Z</time>
      </trkpt>
      <trkpt lat="52.758293" lon="8.205413">
        <ele>30.226583</ele>
        <time>2022-04-14T16:55:38.992Z</time>
      </trkpt>
      <trkpt lat="52.758229" lon="8.205304">
        <ele>30.297821</ele>
        <time>2022-04-14T16:55:40.992Z</time>
      </trkpt>
      <trkpt lat="52.758130" lon="8.205147">
        <ele>30.404176</ele>
        <time>2022-04-14T16:55:43.992Z</time>
      </trkpt>
      <trkpt lat="52.758060" lon="8.205036">
        <ele>30.479374</ele>
        <time>2022-04-14T16:55:45.992Z</time>
      </trkpt>
      <trkpt lat="52.757998" lon="8.204920">
        <ele>30.551969</ele>
        <time>2022-04-14T16:55:47.992Z</time>
      </trkpt>
      <trkpt lat="52.757934" lon="8.204815">
        <ele>30.621872</ele>
        <time>2022-04-14T16:55:49.992Z</time>
      </trkpt>
      <trkpt lat="52.757856" lon="8.204705">
        <ele>30.701354</ele>
        <time>2022-04-14T16:55:51.992Z</time>
      </trkpt>
      <trkpt lat="52.757757" lon="8.204618">
        <ele>30.788265</ele>
        <time>2022-04-14T16:55:54.992Z</time>
      </trkpt>
      <trkpt lat="52.757656" lon="8.204506">
        <ele>30.882543</ele>
        <time>2022-04-14T16:55:57.992Z</time>
      </trkpt>
      <trkpt lat="52.757550" lon="8.204417">
        <ele>30.974701</ele>
        <time>2022-04-14T16:56:00.992Z</time>
      </trkpt>
      <trkpt lat="52.757452" lon="8.204317">
        <ele>31.063976</ele>
        <time>2022-04-14T16:56:03.992Z</time>
      </trkpt>
      <trkpt lat="52.757343" lon="8.204215">
        <ele>31.161068</ele>
        <time>2022-04-14T16:56:06.992Z</time>
      </trkpt>
      <trkpt lat="52.757237" lon="8.204115">
        <ele>31.255675</ele>
        <time>2022-04-14T16:56:09.992Z</time>
      </trkpt>
      <trkpt lat="52.757126" lon="8.204010">
        <ele>31.359120</ele>
        <time>2022-04-14T16:56:12.992Z</time>
      </trkpt>
      <trkpt lat="52.757038" lon="8.203949">
        <ele>31.455938</ele>
        <time>2022-04-14T16:56:14.992Z</time>
      </trkpt>
      <trkpt lat="52.756917" lon="8.203816">
        <ele>31.603380</ele>
        <time>2022-04-14T16:56:17.992Z</time>
      </trkpt>
      <trkpt lat="52.756836" lon="8.203741">
        <ele>31.697582</ele>
        <time>2022-04-14T16:56:19.992Z</time>
      </trkpt>
      <trkpt lat="52.756718" lon="8.203631">
        <ele>31.835038</ele>
        <time>2022-04-14T16:56:22.992Z</time>
      </trkpt>
      <trkpt lat="52.756615" lon="8.203535">
        <ele>31.955015</ele>
        <time>2022-04-14T16:56:25.992Z</time>
      </trkpt>
      <trkpt lat="52.756503" lon="8.203429">
        <ele>32.085965</ele>
        <time>2022-04-14T16:56:28.992Z</time>
      </trkpt>
      <trkpt lat="52.756398" lon="8.203331">
        <ele>32.208313</ele>
        <time>2022-04-14T16:56:31.992Z</time>
      </trkpt>
      <trkpt lat="52.756320" lon="8.203257">
        <ele>32.299565</ele>
        <time>2022-04-14T16:56:33.992Z</time>
      </trkpt>
      <trkpt lat="52.756221" lon="8.203166">
        <ele>32.414502</ele>
        <time>2022-04-14T16:56:36.990Z</time>
      </trkpt>
      <trkpt lat="52.756140" lon="8.203090">
        <ele>32.509006</ele>
        <time>2022-04-14T16:56:38.990Z</time>
      </trkpt>
      <trkpt lat="52.756027" lon="8.202983">
        <ele>32.641141</ele>
        <time>2022-04-14T16:56:41.990Z</time>
      </trkpt>
      <trkpt lat="52.755941" lon="8.202934">
        <ele>32.733435</ele>
        <time>2022-04-14T16:56:43.990Z</time>
      </trkpt>
      <trkpt lat="52.755854" lon="8.202850">
        <ele>32.835666</ele>
        <time>2022-04-14T16:56:45.990Z</time>
      </trkpt>
      <trkpt lat="52.755750" lon="8.202755">
        <ele>32.956230</ele>
        <time>2022-04-14T16:56:48.991Z</time>
      </trkpt>
      <trkpt lat="52.755649" lon="8.202645">
        <ele>33.078958</ele>
        <time>2022-04-14T16:56:51.991Z</time>
      </trkpt>
      <trkpt lat="52.755557" lon="8.202543">
        <ele>33.100969</ele>
        <time>2022-04-14T16:56:54.991Z</time>
      </trkpt>
      <trkpt lat="52.755452" lon="8.202447">
        <ele>32.794125</ele>
        <time>2022-04-14T16:56:57.991Z</time>
      </trkpt>
      <trkpt lat="52.755353" lon="8.202341">
        <ele>32.492483</ele>
        <time>2022-04-14T16:57:00.991Z</time>
      </trkpt>
      <trkpt lat="52.755272" lon="8.202257">
        <ele>32.247954</ele>
        <time>2022-04-14T16:57:02.991Z</time>
      </trkpt>
      <trkpt lat="52.755190" lon="8.202167">
        <ele>31.996239</ele>
        <time>2022-04-14T16:57:04.991Z</time>
      </trkpt>
      <trkpt lat="52.755074" lon="8.202058">
        <ele>31.655021</ele>
        <time>2022-04-14T16:57:07.991Z</time>
      </trkpt>
      <trkpt lat="52.754963" lon="8.201946">
        <ele>31.322459</ele>
        <time>2022-04-14T16:57:10.991Z</time>
      </trkpt>
      <trkpt lat="52.754853" lon="8.201834">
        <ele>30.992077</ele>
        <time>2022-04-14T16:57:13.991Z</time>
      </trkpt>
      <trkpt lat="52.754740" lon="8.201733">
        <ele>30.663572</ele>
        <time>2022-04-14T16:57:16.991Z</time>
      </trkpt>
      <trkpt lat="52.754631" lon="8.201634">
        <ele>30.345529</ele>
        <time>2022-04-14T16:57:19.991Z</time>
      </trkpt>
      <trkpt lat="52.754550" lon="8.201565">
        <ele>30.112508</ele>
        <time>2022-04-14T16:57:21.991Z</time>
      </trkpt>
      <trkpt lat="52.754472" lon="8.201488">
        <ele>29.880178</ele>
        <time>2022-04-14T16:57:23.991Z</time>
      </trkpt>
      <trkpt lat="52.754359" lon="8.201381">
        <ele>29.547155</ele>
        <time>2022-04-14T16:57:26.991Z</time>
      </trkpt>
      <trkpt lat="52.754274" lon="8.201310">
        <ele>29.303617</ele>
        <time>2022-04-14T16:57:28.991Z</time>
      </trkpt>
      <trkpt lat="52.754194" lon="8.201237">
        <ele>29.069937</ele>
        <time>2022-04-14T16:57:30.991Z</time>
      </trkpt>
      <trkpt lat="52.754091" lon="8.201115">
        <ele>28.745885</ele>
        <time>2022-04-14T16:57:33.991Z</time>
      </trkpt>
      <trkpt lat="52.754013" lon="8.201025">
        <ele>28.552997</ele>
        <time>2022-04-14T16:57:35.990Z</time>
      </trkpt>
      <trkpt lat="52.753904" lon="8.200905">
        <ele>28.481741</ele>
        <time>2022-04-14T16:57:38.990Z</time>
      </trkpt>
      <trkpt lat="52.753813" lon="8.200798">
        <ele>28.420979</ele>
        <time>2022-04-14T16:57:41.990Z</time>
      </trkpt>
      <trkpt lat="52.753723" lon="8.200725">
        <ele>28.366436</ele>
        <time>2022-04-14T16:57:44.990Z</time>
      </trkpt>
      <trkpt lat="52.753613" lon="8.200705">
        <ele>28.306233</ele>
        <time>2022-04-14T16:57:45.990Z</time>
      </trkpt>
      <trkpt lat="52.753535" lon="8.200853">
        <ele>28.241616</ele>
        <time>2022-04-14T16:57:48.990Z</time>
      </trkpt>
      <trkpt lat="52.753455" lon="8.201021">
        <ele>28.171231</ele>
        <time>2022-04-14T16:57:51.990Z</time>
      </trkpt>
      <trkpt lat="52.753372" lon="8.201195">
        <ele>28.098285</ele>
        <time>2022-04-14T16:57:54.990Z</time>
      </trkpt>
      <trkpt lat="52.753312" lon="8.201321">
        <ele>28.045496</ele>
        <time>2022-04-14T16:57:56.990Z</time>
      </trkpt>
      <trkpt lat="52.753254" lon="8.201443">
        <ele>27.994415</ele>
        <time>2022-04-14T16:57:58.990Z</time>
      </trkpt>
      <trkpt lat="52.753172" lon="8.201616">
        <ele>27.922063</ele>
        <time>2022-04-14T16:58:01.990Z</time>
      </trkpt>
      <trkpt lat="52.753089" lon="8.201794">
        <ele>27.848078</ele>
        <time>2022-04-14T16:58:04.990Z</time>
      </trkpt>
      <trkpt lat="52.753027" lon="8.201928">
        <ele>27.792540</ele>
        <time>2022-04-14T16:58:06.990Z</time>
      </trkpt>
      <trkpt lat="52.752972" lon="8.202048">
        <ele>27.742978</ele>
        <time>2022-04-14T16:58:08.990Z</time>
      </trkpt>
      <trkpt lat="52.752913" lon="8.202176">
        <ele>27.690001</ele>
        <time>2022-04-14T16:58:10.990Z</time>
      </trkpt>
      <trkpt lat="52.752835" lon="8.202345">
        <ele>27.620021</ele>
        <time>2022-04-14T16:58:13.990Z</time>
      </trkpt>
      <trkpt lat="52.752777" lon="8.202470">
        <ele>27.575491</ele>
        <time>2022-04-14T16:58:15.990Z</time>
      </trkpt>
      <trkpt lat="52.752719" lon="8.202594">
        <ele>27.542844</ele>
        <time>2022-04-14T16:58:17.990Z</time>
      </trkpt>
      <trkpt lat="52.752657" lon="8.202730">
        <ele>27.507374</ele>
        <time>2022-04-14T16:58:19.990Z</time>
      </trkpt>
      <trkpt lat="52.752601" lon="8.202852">
        <ele>27.475477</ele>
        <time>2022-04-14T16:58:21.990Z</time>
      </trkpt>
      <trkpt lat="52.752543" lon="8.202978">
        <ele>27.442499</ele>
        <time>2022-04-14T16:58:23.990Z</time>
      </trkpt>
      <trkpt lat="52.752455" lon="8.203167">
        <ele>27.392823</ele>
        <time>2022-04-14T16:58:26.990Z</time>
      </trkpt>
      <trkpt lat="52.752379" lon="8.203333">
        <ele>27.349462</ele>
        <time>2022-04-14T16:58:29.990Z</time>
      </trkpt>
      <trkpt lat="52.752298" lon="8.203508">
        <ele>27.303567</ele>
        <time>2022-04-14T16:58:32.990Z</time>
      </trkpt>
      <trkpt lat="52.752240" lon="8.203634">
        <ele>27.270589</ele>
        <time>2022-04-14T16:58:34.989Z</time>
      </trkpt>
      <trkpt lat="52.752181" lon="8.203761">
        <ele>27.237237</ele>
        <time>2022-04-14T16:58:36.989Z</time>
      </trkpt>
      <trkpt lat="52.752121" lon="8.203892">
        <ele>27.203013</ele>
        <time>2022-04-14T16:58:38.989Z</time>
      </trkpt>
      <trkpt lat="52.752059" lon="8.204030">
        <ele>27.167209</ele>
        <time>2022-04-14T16:58:40.989Z</time>
      </trkpt>
      <trkpt lat="52.752003" lon="8.204153">
        <ele>27.135145</ele>
        <time>2022-04-14T16:58:42.989Z</time>
      </trkpt>
      <trkpt lat="52.751926" lon="8.204324">
        <ele>27.090744</ele>
        <time>2022-04-14T16:58:45.989Z</time>
      </trkpt>
      <trkpt lat="52.751847" lon="8.204498">
        <ele>27.045430</ele>
        <time>2022-04-14T16:58:48.989Z</time>
      </trkpt>
      <trkpt lat="52.751784" lon="8.204635">
        <ele>27.009586</ele>
        <time>2022-04-14T16:58:50.989Z</time>
      </trkpt>
      <trkpt lat="52.751699" lon="8.204824">
        <ele>26.960641</ele>
        <time>2022-04-14T16:58:53.989Z</time>
      </trkpt>
      <trkpt lat="52.751633" lon="8.204968">
        <ele>26.923491</ele>
        <time>2022-04-14T16:58:55.989Z</time>
      </trkpt>
      <trkpt lat="52.751575" lon="8.205097">
        <ele>26.890440</ele>
        <time>2022-04-14T16:58:57.989Z</time>
      </trkpt>
      <trkpt lat="52.751510" lon="8.205239">
        <ele>26.853823</ele>
        <time>2022-04-14T16:58:59.989Z</time>
      </trkpt>
      <trkpt lat="52.751475" lon="8.205423">
        <ele>26.814154</ele>
        <time>2022-04-14T16:59:01.989Z</time>
      </trkpt>
      <trkpt lat="52.751385" lon="8.205516">
        <ele>26.778082</ele>
        <time>2022-04-14T16:59:03.989Z</time>
      </trkpt>
      <trkpt lat="52.751318" lon="8.205665">
        <ele>26.739905</ele>
        <time>2022-04-14T16:59:05.989Z</time>
      </trkpt>
      <trkpt lat="52.751259" lon="8.205795">
        <ele>26.706485</ele>
        <time>2022-04-14T16:59:07.989Z</time>
      </trkpt>
      <trkpt lat="52.751200" lon="8.205925">
        <ele>26.673066</ele>
        <time>2022-04-14T16:59:09.989Z</time>
      </trkpt>
      <trkpt lat="52.751141" lon="8.206054">
        <ele>26.639811</ele>
        <time>2022-04-14T16:59:11.989Z</time>
      </trkpt>
      <trkpt lat="52.751066" lon="8.206249">
        <ele>26.592292</ele>
        <time>2022-04-14T16:59:14.989Z</time>
      </trkpt>
      <trkpt lat="52.750978" lon="8.206406">
        <ele>26.548281</ele>
        <time>2022-04-14T16:59:17.989Z</time>
      </trkpt>
      <trkpt lat="52.750893" lon="8.206564">
        <ele>26.504804</ele>
        <time>2022-04-14T16:59:20.989Z</time>
      </trkpt>
      <trkpt lat="52.750805" lon="8.206717">
        <ele>26.461393</ele>
        <time>2022-04-14T16:59:23.989Z</time>
      </trkpt>
      <trkpt lat="52.750725" lon="8.206875">
        <ele>26.419025</ele>
        <time>2022-04-14T16:59:26.989Z</time>
      </trkpt>
      <trkpt lat="52.750695" lon="8.207020">
        <ele>26.387507</ele>
        <time>2022-04-14T16:59:28.989Z</time>
      </trkpt>
      <trkpt lat="52.750630" lon="8.207151">
        <ele>26.329986</ele>
        <time>2022-04-14T16:59:30.989Z</time>
      </trkpt>
      <trkpt lat="52.750573" lon="8.207279">
        <ele>26.154352</ele>
        <time>2022-04-14T16:59:32.989Z</time>
      </trkpt>
      <trkpt lat="52.750509" lon="8.207455">
        <ele>25.927424</ele>
        <time>2022-04-14T16:59:35.988Z</time>
      </trkpt>
      <trkpt lat="52.750430" lon="8.207576">
        <ele>25.730715</ele>
        <time>2022-04-14T16:59:37.988Z</time>
      </trkpt>
      <trkpt lat="52.750374" lon="8.207696">
        <ele>25.563242</ele>
        <time>2022-04-14T16:59:39.988Z</time>
      </trkpt>
      <trkpt lat="52.750301" lon="8.207888">
        <ele>25.312641</ele>
        <time>2022-04-14T16:59:42.988Z</time>
      </trkpt>
      <trkpt lat="52.750253" lon="8.208020">
        <ele>25.142444</ele>
        <time>2022-04-14T16:59:44.988Z</time>
      </trkpt>
      <trkpt lat="52.750197" lon="8.208143">
        <ele>24.972333</ele>
        <time>2022-04-14T16:59:46.988Z</time>
      </trkpt>
      <trkpt lat="52.750131" lon="8.208266">
        <ele>24.790658</ele>
        <time>2022-04-14T16:59:48.988Z</time>
      </trkpt>
      <trkpt lat="52.750052" lon="8.208440">
        <ele>24.550254</ele>
        <time>2022-04-14T16:59:51.988Z</time>
      </trkpt>
      <trkpt lat="52.749999" lon="8.208584">
        <ele>24.363982</ele>
        <time>2022-04-14T16:59:53.988Z</time>
      </trkpt>
      <trkpt lat="52.749927" lon="8.208717">
        <ele>24.166766</ele>
        <time>2022-04-14T16:59:55.988Z</time>
      </trkpt>
      <trkpt lat="52.749843" lon="8.208878">
        <ele>23.931837</ele>
        <time>2022-04-14T16:59:58.988Z</time>
      </trkpt>
      <trkpt lat="52.749782" lon="8.209008">
        <ele>23.750034</ele>
        <time>2022-04-14T17:00:00.988Z</time>
      </trkpt>
      <trkpt lat="52.749693" lon="8.209194">
        <ele>23.487977</ele>
        <time>2022-04-14T17:00:03.988Z</time>
      </trkpt>
      <trkpt lat="52.749630" lon="8.209326">
        <ele>23.302183</ele>
        <time>2022-04-14T17:00:05.988Z</time>
      </trkpt>
      <trkpt lat="52.749543" lon="8.209505">
        <ele>23.087415</ele>
        <time>2022-04-14T17:00:08.988Z</time>
      </trkpt>
      <trkpt lat="52.749477" lon="8.209645">
        <ele>23.195902</ele>
        <time>2022-04-14T17:00:10.988Z</time>
      </trkpt>
      <trkpt lat="52.749410" lon="8.209778">
        <ele>23.301689</ele>
        <time>2022-04-14T17:00:12.988Z</time>
      </trkpt>
      <trkpt lat="52.749331" lon="8.209956">
        <ele>23.436630</ele>
        <time>2022-04-14T17:00:15.988Z</time>
      </trkpt>
      <trkpt lat="52.749268" lon="8.210086">
        <ele>23.538441</ele>
        <time>2022-04-14T17:00:17.988Z</time>
      </trkpt>
      <trkpt lat="52.749204" lon="8.210231">
        <ele>23.648154</ele>
        <time>2022-04-14T17:00:19.988Z</time>
      </trkpt>
      <trkpt lat="52.749131" lon="8.210397">
        <ele>23.773597</ele>
        <time>2022-04-14T17:00:22.988Z</time>
      </trkpt>
      <trkpt lat="52.749070" lon="8.210563">
        <ele>23.892321</ele>
        <time>2022-04-14T17:00:25.988Z</time>
      </trkpt>
      <trkpt lat="52.749003" lon="8.210716">
        <ele>24.007772</ele>
        <time>2022-04-14T17:00:28.988Z</time>
      </trkpt>
      <trkpt lat="52.748949" lon="8.210841">
        <ele>24.101660</ele>
        <time>2022-04-14T17:00:31.988Z</time>
      </trkpt>
      <trkpt lat="52.748896" lon="8.210962">
        <ele>24.192972</ele>
        <time>2022-04-14T17:00:35.987Z</time>
      </trkpt>
      <trkpt lat="52.748840" lon="8.211089">
        <ele>24.289033</ele>
        <time>2022-04-14T17:00:39.987Z</time>
      </trkpt>
      <trkpt lat="52.748786" lon="8.210913">
        <ele>24.409668</ele>
        <time>2022-04-14T17:00:41.987Z</time>
      </trkpt>
      <trkpt lat="52.748738" lon="8.210779">
        <ele>24.504862</ele>
        <time>2022-04-14T17:00:44.987Z</time>
      </trkpt>
      <trkpt lat="52.748680" lon="8.210616">
        <ele>24.620459</ele>
        <time>2022-04-14T17:00:47.987Z</time>
      </trkpt>
      <trkpt lat="52.748621" lon="8.210451">
        <ele>24.737622</ele>
        <time>2022-04-14T17:00:50.987Z</time>
      </trkpt>
      <trkpt lat="52.748556" lon="8.210271">
        <ele>24.865764</ele>
        <time>2022-04-14T17:00:53.987Z</time>
      </trkpt>
      <trkpt lat="52.748494" lon="8.210096">
        <ele>24.851995</ele>
        <time>2022-04-14T17:00:56.987Z</time>
      </trkpt>
      <trkpt lat="52.748433" lon="8.209923">
        <ele>24.805023</ele>
        <time>2022-04-14T17:00:59.987Z</time>
      </trkpt>
      <trkpt lat="52.748373" lon="8.209749">
        <ele>24.758042</ele>
        <time>2022-04-14T17:01:02.987Z</time>
      </trkpt>
      <trkpt lat="52.748325" lon="8.209610">
        <ele>24.720498</ele>
        <time>2022-04-14T17:01:04.987Z</time>
      </trkpt>
      <trkpt lat="52.748278" lon="8.209473">
        <ele>24.683553</ele>
        <time>2022-04-14T17:01:06.987Z</time>
      </trkpt>
      <trkpt lat="52.748233" lon="8.209343">
        <ele>24.648419</ele>
        <time>2022-04-14T17:01:08.987Z</time>
      </trkpt>
      <trkpt lat="52.748165" lon="8.209149">
        <ele>24.595824</ele>
        <time>2022-04-14T17:01:11.987Z</time>
      </trkpt>
      <trkpt lat="52.748101" lon="8.208966">
        <ele>24.546239</ele>
        <time>2022-04-14T17:01:14.987Z</time>
      </trkpt>
      <trkpt lat="52.748034" lon="8.208770">
        <ele>24.493430</ele>
        <time>2022-04-14T17:01:17.987Z</time>
      </trkpt>
      <trkpt lat="52.747986" lon="8.208633">
        <ele>24.456292</ele>
        <time>2022-04-14T17:01:19.987Z</time>
      </trkpt>
      <trkpt lat="52.747921" lon="8.208445">
        <ele>24.405497</ele>
        <time>2022-04-14T17:01:22.987Z</time>
      </trkpt>
      <trkpt lat="52.747872" lon="8.208306">
        <ele>24.367759</ele>
        <time>2022-04-14T17:01:24.987Z</time>
      </trkpt>
      <trkpt lat="52.747805" lon="8.208113">
        <ele>24.315561</ele>
        <time>2022-04-14T17:01:27.987Z</time>
      </trkpt>
      <trkpt lat="52.747760" lon="8.207982">
        <ele>24.280222</ele>
        <time>2022-04-14T17:01:29.987Z</time>
      </trkpt>
      <trkpt lat="52.747709" lon="8.207834">
        <ele>24.240267</ele>
        <time>2022-04-14T17:01:31.987Z</time>
      </trkpt>
      <trkpt lat="52.747646" lon="8.207639">
        <ele>24.203830</ele>
        <time>2022-04-14T17:01:34.986Z</time>
      </trkpt>
      <trkpt lat="52.747599" lon="8.207491">
        <ele>24.294383</ele>
        <time>2022-04-14T17:01:36.986Z</time>
      </trkpt>
      <trkpt lat="52.747560" lon="8.207357">
        <ele>24.374941</ele>
        <time>2022-04-14T17:01:38.986Z</time>
      </trkpt>
      <trkpt lat="52.747508" lon="8.207165">
        <ele>24.488905</ele>
        <time>2022-04-14T17:01:41.986Z</time>
      </trkpt>
      <trkpt lat="52.747466" lon="8.207012">
        <ele>24.579928</ele>
        <time>2022-04-14T17:01:43.986Z</time>
      </trkpt>
      <trkpt lat="52.747425" lon="8.206862">
        <ele>24.669100</ele>
        <time>2022-04-14T17:01:45.986Z</time>
      </trkpt>
      <trkpt lat="52.747384" lon="8.206711">
        <ele>24.758767</ele>
        <time>2022-04-14T17:01:47.986Z</time>
      </trkpt>
      <trkpt lat="52.747345" lon="8.206571">
        <ele>24.842267</ele>
        <time>2022-04-14T17:01:49.986Z</time>
      </trkpt>
      <trkpt lat="52.747306" lon="8.206428">
        <ele>24.927247</ele>
        <time>2022-04-14T17:01:51.986Z</time>
      </trkpt>
      <trkpt lat="52.747266" lon="8.206280">
        <ele>25.015064</ele>
        <time>2022-04-14T17:01:53.986Z</time>
      </trkpt>
      <trkpt lat="52.747228" lon="8.206140">
        <ele>25.098194</ele>
        <time>2022-04-14T17:01:55.986Z</time>
      </trkpt>
      <trkpt lat="52.747170" lon="8.205928">
        <ele>25.224245</ele>
        <time>2022-04-14T17:01:58.986Z</time>
      </trkpt>
      <trkpt lat="52.747131" lon="8.205786">
        <ele>25.308731</ele>
        <time>2022-04-14T17:02:00.986Z</time>
      </trkpt>
      <trkpt lat="52.747089" lon="8.205633">
        <ele>25.399754</ele>
        <time>2022-04-14T17:02:02.986Z</time>
      </trkpt>
      <trkpt lat="52.747038" lon="8.205446">
        <ele>25.510882</ele>
        <time>2022-04-14T17:02:05.986Z</time>
      </trkpt>
      <trkpt lat="52.746999" lon="8.205303">
        <ele>25.595862</ele>
        <time>2022-04-14T17:02:07.986Z</time>
      </trkpt>
      <trkpt lat="52.746961" lon="8.205164">
        <ele>25.678498</ele>
        <time>2022-04-14T17:02:09.986Z</time>
      </trkpt>
      <trkpt lat="52.746914" lon="8.204994">
        <ele>25.779759</ele>
        <time>2022-04-14T17:02:12.986Z</time>
      </trkpt>
      <trkpt lat="52.746860" lon="8.204794">
        <ele>25.828103</ele>
        <time>2022-04-14T17:02:15.986Z</time>
      </trkpt>
      <trkpt lat="52.746816" lon="8.204634">
        <ele>25.853176</ele>
        <time>2022-04-14T17:02:17.986Z</time>
      </trkpt>
      <trkpt lat="52.746775" lon="8.204485">
        <ele>25.876528</ele>
        <time>2022-04-14T17:02:19.986Z</time>
      </trkpt>
      <trkpt lat="52.746728" lon="8.204312">
        <ele>25.903582</ele>
        <time>2022-04-14T17:02:21.986Z</time>
      </trkpt>
      <trkpt lat="52.746688" lon="8.204167">
        <ele>25.926317</ele>
        <time>2022-04-14T17:02:23.986Z</time>
      </trkpt>
      <trkpt lat="52.746646" lon="8.204013">
        <ele>25.950416</ele>
        <time>2022-04-14T17:02:25.986Z</time>
      </trkpt>
      <trkpt lat="52.746598" lon="8.203800">
        <ele>25.982844</ele>
        <time>2022-04-14T17:02:28.986Z</time>
      </trkpt>
      <trkpt lat="52.746563" lon="8.203645">
        <ele>26.006447</ele>
        <time>2022-04-14T17:02:30.986Z</time>
      </trkpt>
      <trkpt lat="52.746525" lon="8.203480">
        <ele>26.031635</ele>
        <time>2022-04-14T17:02:32.985Z</time>
      </trkpt>
      <trkpt lat="52.746477" lon="8.203276">
        <ele>26.062862</ele>
        <time>2022-04-14T17:02:34.985Z</time>
      </trkpt>
      <trkpt lat="52.746434" lon="8.203127">
        <ele>26.086413</ele>
        <time>2022-04-14T17:02:36.985Z</time>
      </trkpt>
      <trkpt lat="52.746391" lon="8.202975">
        <ele>26.110351</ele>
        <time>2022-04-14T17:02:38.985Z</time>
      </trkpt>
      <trkpt lat="52.746351" lon="8.202835">
        <ele>26.132439</ele>
        <time>2022-04-14T17:02:40.985Z</time>
      </trkpt>
      <trkpt lat="52.746309" lon="8.202689">
        <ele>26.155502</ele>
        <time>2022-04-14T17:02:42.985Z</time>
      </trkpt>
      <trkpt lat="52.746274" lon="8.202546">
        <ele>26.177509</ele>
        <time>2022-04-14T17:02:45.985Z</time>
      </trkpt>
      <trkpt lat="52.746252" lon="8.202397">
        <ele>26.199391</ele>
        <time>2022-04-14T17:02:47.985Z</time>
      </trkpt>
      <trkpt lat="52.746227" lon="8.202225">
        <ele>26.224629</ele>
        <time>2022-04-14T17:02:49.985Z</time>
      </trkpt>
      <trkpt lat="52.746196" lon="8.202012">
        <ele>26.286715</ele>
        <time>2022-04-14T17:02:52.985Z</time>
      </trkpt>
      <trkpt lat="52.746172" lon="8.201845">
        <ele>26.337253</ele>
        <time>2022-04-14T17:02:54.985Z</time>
      </trkpt>
      <trkpt lat="52.746139" lon="8.201617">
        <ele>26.406276</ele>
        <time>2022-04-14T17:02:57.985Z</time>
      </trkpt>
      <trkpt lat="52.746116" lon="8.201465">
        <ele>26.452407</ele>
        <time>2022-04-14T17:02:59.985Z</time>
      </trkpt>
      <trkpt lat="52.746094" lon="8.201313">
        <ele>26.498423</ele>
        <time>2022-04-14T17:03:01.985Z</time>
      </trkpt>
      <trkpt lat="52.746064" lon="8.201108">
        <ele>26.560521</ele>
        <time>2022-04-14T17:03:04.985Z</time>
      </trkpt>
      <trkpt lat="52.746030" lon="8.200872">
        <ele>26.631949</ele>
        <time>2022-04-14T17:03:07.985Z</time>
      </trkpt>
      <trkpt lat="52.746009" lon="8.200727">
        <ele>26.675847</ele>
        <time>2022-04-14T17:03:09.985Z</time>
      </trkpt>
      <trkpt lat="52.745973" lon="8.200521">
        <ele>26.738978</ele>
        <time>2022-04-14T17:03:12.985Z</time>
      </trkpt>
      <trkpt lat="52.745933" lon="8.200303">
        <ele>26.806049</ele>
        <time>2022-04-14T17:03:15.985Z</time>
      </trkpt>
      <trkpt lat="52.745904" lon="8.200147">
        <ele>26.854098</ele>
        <time>2022-04-14T17:03:17.985Z</time>
      </trkpt>
      <trkpt lat="52.745864" lon="8.199984">
        <ele>26.905885</ele>
        <time>2022-04-14T17:03:19.985Z</time>
      </trkpt>
      <trkpt lat="52.745826" lon="8.199839">
        <ele>26.952408</ele>
        <time>2022-04-14T17:03:21.985Z</time>
      </trkpt>
      <trkpt lat="52.745788" lon="8.199694">
        <ele>26.998931</ele>
        <time>2022-04-14T17:03:23.985Z</time>
      </trkpt>
      <trkpt lat="52.745752" lon="8.199554">
        <ele>27.043717</ele>
        <time>2022-04-14T17:03:25.985Z</time>
      </trkpt>
      <trkpt lat="52.745715" lon="8.199416">
        <ele>27.088156</ele>
        <time>2022-04-14T17:03:27.985Z</time>
      </trkpt>
      <trkpt lat="52.745664" lon="8.199221">
        <ele>27.190126</ele>
        <time>2022-04-14T17:03:30.984Z</time>
      </trkpt>
      <trkpt lat="52.745610" lon="8.199012">
        <ele>27.310915</ele>
        <time>2022-04-14T17:03:33.984Z</time>
      </trkpt>
      <trkpt lat="52.745574" lon="8.198874">
        <ele>27.390790</ele>
        <time>2022-04-14T17:03:35.984Z</time>
      </trkpt>
      <trkpt lat="52.745524" lon="8.198682">
        <ele>27.501891</ele>
        <time>2022-04-14T17:03:38.984Z</time>
      </trkpt>
      <trkpt lat="52.745490" lon="8.198531">
        <ele>27.587527</ele>
        <time>2022-04-14T17:03:40.986Z</time>
      </trkpt>
      <trkpt lat="52.745459" lon="8.198387">
        <ele>27.668766</ele>
        <time>2022-04-14T17:03:42.987Z</time>
      </trkpt>
      <trkpt lat="52.745428" lon="8.198239">
        <ele>27.752012</ele>
        <time>2022-04-14T17:03:44.989Z</time>
      </trkpt>
      <trkpt lat="52.745385" lon="8.198035">
        <ele>27.866834</ele>
        <time>2022-04-14T17:03:47.991Z</time>
      </trkpt>
      <trkpt lat="52.745341" lon="8.197830">
        <ele>27.982449</ele>
        <time>2022-04-14T17:03:50.993Z</time>
      </trkpt>
      <trkpt lat="52.745297" lon="8.197618">
        <ele>28.101577</ele>
        <time>2022-04-14T17:03:53.994Z</time>
      </trkpt>
      <trkpt lat="52.745258" lon="8.197432">
        <ele>28.206209</ele>
        <time>2022-04-14T17:03:56.995Z</time>
      </trkpt>
      <trkpt lat="52.745189" lon="8.197317">
        <ele>28.292276</ele>
        <time>2022-04-14T17:03:58.996Z</time>
      </trkpt>
      <trkpt lat="52.745131" lon="8.197179">
        <ele>28.381576</ele>
        <time>2022-04-14T17:04:01.997Z</time>
      </trkpt>
      <trkpt lat="52.745072" lon="8.197062">
        <ele>28.462519</ele>
        <time>2022-04-14T17:04:05.997Z</time>
      </trkpt>
      <trkpt lat="52.744985" lon="8.197154">
        <ele>28.553224</ele>
        <time>2022-04-14T17:04:06.998Z</time>
      </trkpt>
      <trkpt lat="52.744899" lon="8.197252">
        <ele>28.644964</ele>
        <time>2022-04-14T17:04:09.998Z</time>
      </trkpt>
      <trkpt lat="52.744801" lon="8.197358">
        <ele>28.620937</ele>
        <time>2022-04-14T17:04:12.998Z</time>
      </trkpt>
      <trkpt lat="52.744701" lon="8.197468">
        <ele>28.525828</ele>
        <time>2022-04-14T17:04:15.999Z</time>
      </trkpt>
      <trkpt lat="52.744595" lon="8.197581">
        <ele>28.425959</ele>
        <time>2022-04-14T17:04:18.999Z</time>
      </trkpt>
      <trkpt lat="52.744483" lon="8.197693">
        <ele>28.322316</ele>
        <time>2022-04-14T17:04:21.999Z</time>
      </trkpt>
      <trkpt lat="52.744375" lon="8.197800">
        <ele>28.222622</ele>
        <time>2022-04-14T17:04:24.999Z</time>
      </trkpt>
      <trkpt lat="52.744294" lon="8.197878">
        <ele>28.148401</ele>
        <time>2022-04-14T17:04:26.999Z</time>
      </trkpt>
      <trkpt lat="52.744210" lon="8.197950">
        <ele>28.073485</ele>
        <time>2022-04-14T17:04:28.999Z</time>
      </trkpt>
      <trkpt lat="52.744125" lon="8.198019">
        <ele>27.998510</ele>
        <time>2022-04-14T17:04:30.999Z</time>
      </trkpt>
      <trkpt lat="52.744025" lon="8.198144">
        <ele>27.899237</ele>
        <time>2022-04-14T17:04:33.999Z</time>
      </trkpt>
      <trkpt lat="52.743936" lon="8.198220">
        <ele>27.819925</ele>
        <time>2022-04-14T17:04:35.999Z</time>
      </trkpt>
      <trkpt lat="52.743833" lon="8.198352">
        <ele>27.716725</ele>
        <time>2022-04-14T17:04:38.999Z</time>
      </trkpt>
      <trkpt lat="52.743746" lon="8.198402">
        <ele>27.643804</ele>
        <time>2022-04-14T17:04:40.999Z</time>
      </trkpt>
      <trkpt lat="52.743652" lon="8.198482">
        <ele>27.560095</ele>
        <time>2022-04-14T17:04:43.999Z</time>
      </trkpt>
      <trkpt lat="52.743565" lon="8.198559">
        <ele>27.481961</ele>
        <time>2022-04-14T17:04:46.999Z</time>
      </trkpt>
      <trkpt lat="52.743481" lon="8.198641">
        <ele>27.404720</ele>
        <time>2022-04-14T17:04:49.999Z</time>
      </trkpt>
      <trkpt lat="52.743397" lon="8.198722">
        <ele>27.327722</ele>
        <time>2022-04-14T17:04:52.999Z</time>
      </trkpt>
      <trkpt lat="52.743312" lon="8.198804">
        <ele>27.257388</ele>
        <time>2022-04-14T17:04:56.999Z</time>
      </trkpt>
      <trkpt lat="52.743214" lon="8.198897">
        <ele>27.259194</ele>
        <time>2022-04-14T17:05:01.999Z</time>
      </trkpt>
      <trkpt lat="52.743131" lon="8.198978">
        <ele>27.260735</ele>
        <time>2022-04-14T17:05:04.999Z</time>
      </trkpt>
      <trkpt lat="52.743090" lon="8.199137">
        <ele>27.262407</ele>
        <time>2022-04-14T17:05:07.999Z</time>
      </trkpt>
      <trkpt lat="52.743018" lon="8.199241">
        <ele>27.263935</ele>
        <time>2022-04-14T17:05:11.999Z</time>
      </trkpt>
      <trkpt lat="52.742920" lon="8.199275">
        <ele>27.265536</ele>
        <time>2022-04-14T17:05:16.999Z</time>
      </trkpt>
      <trkpt lat="52.742856" lon="8.199163">
        <ele>27.267026</ele>
        <time>2022-04-14T17:05:21.999Z</time>
      </trkpt>
      <trkpt lat="52.742789" lon="8.199039">
        <ele>27.268634</ele>
        <time>2022-04-14T17:05:25.999Z</time>
      </trkpt>
      <trkpt lat="52.742709" lon="8.198959">
        <ele>27.270128</ele>
        <time>2022-04-14T17:05:29.999Z</time>
      </trkpt>
      <trkpt lat="52.742613" lon="8.198967">
        <ele>27.271664</ele>
        <time>2022-04-14T17:05:33.999Z</time>
      </trkpt>
      <trkpt lat="52.742502" lon="8.198909">
        <ele>27.273525</ele>
        <time>2022-04-14T17:05:37.999Z</time>
      </trkpt>
      <trkpt lat="52.742404" lon="8.198859">
        <ele>27.275164</ele>
        <time>2022-04-14T17:05:40.999Z</time>
      </trkpt>
      <trkpt lat="52.742304" lon="8.198854">
        <ele>27.276763</ele>
        <time>2022-04-14T17:05:43.999Z</time>
      </trkpt>
      <trkpt lat="52.742186" lon="8.198861">
        <ele>27.278650</ele>
        <time>2022-04-14T17:05:46.998Z</time>
      </trkpt>
      <trkpt lat="52.742087" lon="8.198869">
        <ele>27.280234</ele>
        <time>2022-04-14T17:05:49.998Z</time>
      </trkpt>
      <trkpt lat="52.741987" lon="8.198857">
        <ele>27.281836</ele>
        <time>2022-04-14T17:05:52.998Z</time>
      </trkpt>
      <trkpt lat="52.741870" lon="8.198827">
        <ele>27.283728</ele>
        <time>2022-04-14T17:05:56.998Z</time>
      </trkpt>
      <trkpt lat="52.741785" lon="8.198770">
        <ele>27.285194</ele>
        <time>2022-04-14T17:05:59.998Z</time>
      </trkpt>
      <trkpt lat="52.741690" lon="8.198790">
        <ele>27.375232</ele>
        <time>2022-04-14T17:06:02.998Z</time>
      </trkpt>
      <trkpt lat="52.741577" lon="8.198771">
        <ele>27.593305</ele>
        <time>2022-04-14T17:06:05.998Z</time>
      </trkpt>
      <trkpt lat="52.741470" lon="8.198704">
        <ele>27.813002</ele>
        <time>2022-04-14T17:06:08.998Z</time>
      </trkpt>
      <trkpt lat="52.741362" lon="8.198657">
        <ele>28.027430</ele>
        <time>2022-04-14T17:06:11.998Z</time>
      </trkpt>
      <trkpt lat="52.741243" lon="8.198614">
        <ele>28.261304</ele>
        <time>2022-04-14T17:06:14.998Z</time>
      </trkpt>
      <trkpt lat="52.741127" lon="8.198576">
        <ele>28.488353</ele>
        <time>2022-04-14T17:06:17.998Z</time>
      </trkpt>
      <trkpt lat="52.741025" lon="8.198540">
        <ele>28.688606</ele>
        <time>2022-04-14T17:06:20.998Z</time>
      </trkpt>
      <trkpt lat="52.740907" lon="8.198497">
        <ele>28.920605</ele>
        <time>2022-04-14T17:06:23.998Z</time>
      </trkpt>
      <trkpt lat="52.740813" lon="8.198548">
        <ele>29.110565</ele>
        <time>2022-04-14T17:06:27.998Z</time>
      </trkpt>
      <trkpt lat="52.740766" lon="8.198703">
        <ele>29.312066</ele>
        <time>2022-04-14T17:06:31.998Z</time>
      </trkpt>
      <trkpt lat="52.740745" lon="8.198872">
        <ele>29.512601</ele>
        <time>2022-04-14T17:06:34.998Z</time>
      </trkpt>
      <trkpt lat="52.740777" lon="8.199055">
        <ele>29.734008</ele>
        <time>2022-04-14T17:06:37.997Z</time>
      </trkpt>
      <trkpt lat="52.740804" lon="8.199234">
        <ele>29.948432</ele>
        <time>2022-04-14T17:06:40.997Z</time>
      </trkpt>
      <trkpt lat="52.740833" lon="8.199424">
        <ele>30.176191</ele>
        <time>2022-04-14T17:06:43.997Z</time>
      </trkpt>
      <trkpt lat="52.740860" lon="8.199603">
        <ele>30.390615</ele>
        <time>2022-04-14T17:06:46.997Z</time>
      </trkpt>
      <trkpt lat="52.740894" lon="8.199783">
        <ele>30.609787</ele>
        <time>2022-04-14T17:06:49.997Z</time>
      </trkpt>
      <trkpt lat="52.740913" lon="8.199951">
        <ele>30.758873</ele>
        <time>2022-04-14T17:06:52.997Z</time>
      </trkpt>
      <trkpt lat="52.740956" lon="8.200119">
        <ele>30.819019</ele>
        <time>2022-04-14T17:06:55.997Z</time>
      </trkpt>
      <trkpt lat="52.741007" lon="8.200287">
        <ele>30.880993</ele>
        <time>2022-04-14T17:06:58.997Z</time>
      </trkpt>
      <trkpt lat="52.741047" lon="8.200434">
        <ele>30.934138</ele>
        <time>2022-04-14T17:07:01.997Z</time>
      </trkpt>
      <trkpt lat="52.740945" lon="8.200518">
        <ele>30.996217</ele>
        <time>2022-04-14T17:07:03.997Z</time>
      </trkpt>
      <trkpt lat="52.740831" lon="8.200612">
        <ele>31.065617</ele>
        <time>2022-04-14T17:07:06.997Z</time>
      </trkpt>
      <trkpt lat="52.740728" lon="8.200695">
        <ele>31.128039</ele>
        <time>2022-04-14T17:07:09.997Z</time>
      </trkpt>
      <trkpt lat="52.740611" lon="8.200773">
        <ele>31.196760</ele>
        <time>2022-04-14T17:07:12.997Z</time>
      </trkpt>
      <trkpt lat="52.740500" lon="8.200850">
        <ele>31.262335</ele>
        <time>2022-04-14T17:07:15.997Z</time>
      </trkpt>
      <trkpt lat="52.740370" lon="8.200905">
        <ele>31.335428</ele>
        <time>2022-04-14T17:07:18.997Z</time>
      </trkpt>
      <trkpt lat="52.740248" lon="8.200944">
        <ele>31.403112</ele>
        <time>2022-04-14T17:07:21.997Z</time>
      </trkpt>
      <trkpt lat="52.740137" lon="8.200974">
        <ele>31.464374</ele>
        <time>2022-04-14T17:07:24.997Z</time>
      </trkpt>
      <trkpt lat="52.740047" lon="8.200981">
        <ele>31.513449</ele>
        <time>2022-04-14T17:07:27.997Z</time>
      </trkpt>
      <trkpt lat="52.740014" lon="8.201120">
        <ele>31.562685</ele>
        <time>2022-04-14T17:07:28.997Z</time>
      </trkpt>
      <trkpt lat="52.740018" lon="8.201306">
        <ele>31.624059</ele>
        <time>2022-04-14T17:07:31.996Z</time>
      </trkpt>
      <trkpt lat="52.740015" lon="8.201496">
        <ele>31.686736</ele>
        <time>2022-04-14T17:07:34.996Z</time>
      </trkpt>
      <trkpt lat="52.740018" lon="8.201673">
        <ele>31.718915</ele>
        <time>2022-04-14T17:07:37.996Z</time>
      </trkpt>
      <trkpt lat="52.740023" lon="8.201874">
        <ele>31.718915</ele>
        <time>2022-04-14T17:07:40.996Z</time>
      </trkpt>
      <trkpt lat="52.740020" lon="8.202095">
        <ele>31.718915</ele>
        <time>2022-04-14T17:07:43.996Z</time>
      </trkpt>
      <trkpt lat="52.740014" lon="8.202245">
        <ele>31.718915</ele>
        <time>2022-04-14T17:07:45.996Z</time>
      </trkpt>
      <trkpt lat="52.740008" lon="8.202398">
        <ele>31.718915</ele>
        <time>2022-04-14T17:07:47.996Z</time>
      </trkpt>
      <trkpt lat="52.739999" lon="8.202549">
        <ele>31.718915</ele>
        <time>2022-04-14T17:07:49.996Z</time>
      </trkpt>
      <trkpt lat="52.740014" lon="8.202768">
        <ele>31.718915</ele>
        <time>2022-04-14T17:07:52.996Z</time>
      </trkpt>
      <trkpt lat="52.740012" lon="8.202969">
        <ele>31.718915</ele>
        <time>2022-04-14T17:07:55.996Z</time>
      </trkpt>
      <trkpt lat="52.740011" lon="8.203158">
        <ele>31.718915</ele>
        <time>2022-04-14T17:07:58.996Z</time>
      </trkpt>
      <trkpt lat="52.740009" lon="8.203347">
        <ele>31.718915</ele>
        <time>2022-04-14T17:08:01.996Z</time>
      </trkpt>
      <trkpt lat="52.740008" lon="8.203515">
        <ele>31.718915</ele>
        <time>2022-04-14T17:08:04.996Z</time>
      </trkpt>
      <trkpt lat="52.739932" lon="8.203606">
        <ele>31.718915</ele>
        <time>2022-04-14T17:08:06.996Z</time>
      </trkpt>
      <trkpt lat="52.739914" lon="8.203762">
        <ele>31.718915</ele>
        <time>2022-04-14T17:08:10.996Z</time>
      </trkpt>
      <trkpt lat="52.739959" lon="8.203904">
        <ele>31.718915</ele>
        <time>2022-04-14T17:08:14.996Z</time>
      </trkpt>
      <trkpt lat="52.740050" lon="8.204008">
        <ele>31.718915</ele>
        <time>2022-04-14T17:08:18.996Z</time>
      </trkpt>
      <trkpt lat="52.740114" lon="8.204145">
        <ele>31.718915</ele>
        <time>2022-04-14T17:08:22.995Z</time>
      </trkpt>
      <trkpt lat="52.740062" lon="8.204272">
        <ele>31.718915</ele>
        <time>2022-04-14T17:08:25.995Z</time>
      </trkpt>
      <trkpt lat="52.739993" lon="8.204409">
        <ele>31.718915</ele>
        <time>2022-04-14T17:08:28.995Z</time>
      </trkpt>
      <trkpt lat="52.739920" lon="8.204518">
        <ele>31.718915</ele>
        <time>2022-04-14T17:08:32.995Z</time>
      </trkpt>
      <trkpt lat="52.739864" lon="8.204402">
        <ele>31.718915</ele>
        <time>2022-04-14T17:08:43.995Z</time>
      </trkpt>
    </trkseg>
  </trk>
</gpx>